<?xml version='1.0' encoding='UTF-8'?>
<gpx version="1.1" creator="https://www.komoot.de" xmlns="http://www.topografix.com/GPX/1/1" xmlns:xsi="http://www.w3.org/2001/XMLSchema-instance" xsi:schemaLocation="http://www.topografix.com/GPX/1/1 http://www.topografix.com/GPX/1/1/gpx.xsd">
  <metadata>
    <name>Giro dei Lupi GW6</name>
    <author>
      <link href="https://www.komoot.de">
        <text>komoot</text>
        <type>text/html</type>
      </link>
    </author>
  </metadata>
  <trk>
    <name>Giro dei Lupi GW6</name>
    <trkseg>
      <trkpt lat="45.638147" lon="10.192550">
        <ele>249.060385</ele>
        <time>2020-12-17T10:26:30.591Z</time>
      </trkpt>
      <trkpt lat="45.637986" lon="10.192529">
        <ele>249.060385</ele>
        <time>2020-12-17T10:26:33.677Z</time>
      </trkpt>
      <trkpt lat="45.636119" lon="10.192212">
        <ele>249.236271</ele>
        <time>2020-12-17T10:27:09.190Z</time>
      </trkpt>
      <trkpt lat="45.635945" lon="10.192180">
        <ele>249.263280</ele>
        <time>2020-12-17T10:27:12.549Z</time>
      </trkpt>
      <trkpt lat="45.635693" lon="10.192121">
        <ele>249.302593</ele>
        <time>2020-12-17T10:27:18.006Z</time>
      </trkpt>
      <trkpt lat="45.635508" lon="10.192084">
        <ele>249.331352</ele>
        <time>2020-12-17T10:27:22.246Z</time>
      </trkpt>
      <trkpt lat="45.635091" lon="10.191992">
        <ele>249.578813</ele>
        <time>2020-12-17T10:27:32.319Z</time>
      </trkpt>
      <trkpt lat="45.635004" lon="10.191969">
        <ele>249.634556</ele>
        <time>2020-12-17T10:27:34.435Z</time>
      </trkpt>
      <trkpt lat="45.634835" lon="10.191919">
        <ele>249.743289</ele>
        <time>2020-12-17T10:27:38.465Z</time>
      </trkpt>
      <trkpt lat="45.634466" lon="10.191847">
        <ele>249.977931</ele>
        <time>2020-12-17T10:27:46.991Z</time>
      </trkpt>
      <trkpt lat="45.634185" lon="10.191808">
        <ele>250.155806</ele>
        <time>2020-12-17T10:27:53.320Z</time>
      </trkpt>
      <trkpt lat="45.633879" lon="10.191772">
        <ele>250.349252</ele>
        <time>2020-12-17T10:27:59.700Z</time>
      </trkpt>
      <trkpt lat="45.633497" lon="10.191744">
        <ele>250.574221</ele>
        <time>2020-12-17T10:28:07.765Z</time>
      </trkpt>
      <trkpt lat="45.633403" lon="10.191734">
        <ele>250.625660</ele>
        <time>2020-12-17T10:28:09.697Z</time>
      </trkpt>
      <trkpt lat="45.633167" lon="10.191738">
        <ele>250.754457</ele>
        <time>2020-12-17T10:28:14.978Z</time>
      </trkpt>
      <trkpt lat="45.632738" lon="10.191746">
        <ele>250.988587</ele>
        <time>2020-12-17T10:28:24.209Z</time>
      </trkpt>
      <trkpt lat="45.632554" lon="10.191731">
        <ele>251.089161</ele>
        <time>2020-12-17T10:28:28.421Z</time>
      </trkpt>
      <trkpt lat="45.632526" lon="10.191720">
        <ele>251.105007</ele>
        <time>2020-12-17T10:28:28.886Z</time>
      </trkpt>
      <trkpt lat="45.632333" lon="10.191641">
        <ele>251.214559</ele>
        <time>2020-12-17T10:28:32.851Z</time>
      </trkpt>
      <trkpt lat="45.632088" lon="10.191567">
        <ele>251.351207</ele>
        <time>2020-12-17T10:28:37.375Z</time>
      </trkpt>
      <trkpt lat="45.631367" lon="10.191379">
        <ele>254.509468</ele>
        <time>2020-12-17T10:28:55.680Z</time>
      </trkpt>
      <trkpt lat="45.631300" lon="10.191425">
        <ele>254.924073</ele>
        <time>2020-12-17T10:28:58.811Z</time>
      </trkpt>
      <trkpt lat="45.631245" lon="10.191303">
        <ele>255.490316</ele>
        <time>2020-12-17T10:29:03.403Z</time>
      </trkpt>
      <trkpt lat="45.631243" lon="10.191251">
        <ele>255.693471</ele>
        <time>2020-12-17T10:29:04.914Z</time>
      </trkpt>
      <trkpt lat="45.631244" lon="10.190303">
        <ele>259.391555</ele>
        <time>2020-12-17T10:29:39.662Z</time>
      </trkpt>
      <trkpt lat="45.631238" lon="10.190073">
        <ele>260.289392</ele>
        <time>2020-12-17T10:29:47.769Z</time>
      </trkpt>
      <trkpt lat="45.631063" lon="10.189955">
        <ele>261.368716</ele>
        <time>2020-12-17T10:30:02.862Z</time>
      </trkpt>
      <trkpt lat="45.630840" lon="10.189908">
        <ele>264.575058</ele>
        <time>2020-12-17T10:30:19.446Z</time>
      </trkpt>
      <trkpt lat="45.630630" lon="10.189921">
        <ele>267.751736</ele>
        <time>2020-12-17T10:30:42.655Z</time>
      </trkpt>
      <trkpt lat="45.630519" lon="10.189946">
        <ele>269.449945</ele>
        <time>2020-12-17T10:30:54.155Z</time>
      </trkpt>
      <trkpt lat="45.630361" lon="10.190011">
        <ele>271.934625</ele>
        <time>2020-12-17T10:31:10.311Z</time>
      </trkpt>
      <trkpt lat="45.630287" lon="10.190047">
        <ele>273.115922</ele>
        <time>2020-12-17T10:31:19.912Z</time>
      </trkpt>
      <trkpt lat="45.630239" lon="10.190081">
        <ele>273.925454</ele>
        <time>2020-12-17T10:31:25.457Z</time>
      </trkpt>
      <trkpt lat="45.630128" lon="10.190122">
        <ele>275.658040</ele>
        <time>2020-12-17T10:31:34.163Z</time>
      </trkpt>
      <trkpt lat="45.630126" lon="10.190102">
        <ele>275.871555</ele>
        <time>2020-12-17T10:31:35.624Z</time>
      </trkpt>
      <trkpt lat="45.630130" lon="10.190081">
        <ele>276.101575</ele>
        <time>2020-12-17T10:31:37.786Z</time>
      </trkpt>
      <trkpt lat="45.630325" lon="10.189542">
        <ele>282.515034</ele>
        <time>2020-12-17T10:32:18.930Z</time>
      </trkpt>
      <trkpt lat="45.630367" lon="10.189483">
        <ele>283.404798</ele>
        <time>2020-12-17T10:32:26.466Z</time>
      </trkpt>
      <trkpt lat="45.630391" lon="10.189445">
        <ele>283.945939</ele>
        <time>2020-12-17T10:32:30.616Z</time>
      </trkpt>
      <trkpt lat="45.630532" lon="10.189162">
        <ele>287.618224</ele>
        <time>2020-12-17T10:32:58.071Z</time>
      </trkpt>
      <trkpt lat="45.630538" lon="10.189018">
        <ele>289.158956</ele>
        <time>2020-12-17T10:33:10.378Z</time>
      </trkpt>
      <trkpt lat="45.630527" lon="10.188842">
        <ele>291.090228</ele>
        <time>2020-12-17T10:33:28.489Z</time>
      </trkpt>
      <trkpt lat="45.630478" lon="10.188679">
        <ele>293.029391</ele>
        <time>2020-12-17T10:33:43.419Z</time>
      </trkpt>
      <trkpt lat="45.630451" lon="10.188013">
        <ele>300.320716</ele>
        <time>2020-12-17T10:34:38.977Z</time>
      </trkpt>
      <trkpt lat="45.630334" lon="10.187467">
        <ele>306.562177</ele>
        <time>2020-12-17T10:35:21.234Z</time>
      </trkpt>
      <trkpt lat="45.630160" lon="10.187039">
        <ele>311.973148</ele>
        <time>2020-12-17T10:35:52.445Z</time>
      </trkpt>
      <trkpt lat="45.630102" lon="10.186945">
        <ele>313.343296</ele>
        <time>2020-12-17T10:36:04.371Z</time>
      </trkpt>
      <trkpt lat="45.630061" lon="10.186980">
        <ele>314.089609</ele>
        <time>2020-12-17T10:36:08.722Z</time>
      </trkpt>
      <trkpt lat="45.630047" lon="10.187057">
        <ele>314.959174</ele>
        <time>2020-12-17T10:36:12.172Z</time>
      </trkpt>
      <trkpt lat="45.630058" lon="10.187136">
        <ele>315.839568</ele>
        <time>2020-12-17T10:36:16.345Z</time>
      </trkpt>
      <trkpt lat="45.630086" lon="10.187339">
        <ele>317.621552</ele>
        <time>2020-12-17T10:36:28.538Z</time>
      </trkpt>
      <trkpt lat="45.630087" lon="10.187961">
        <ele>321.950803</ele>
        <time>2020-12-17T10:37:10.008Z</time>
      </trkpt>
      <trkpt lat="45.629905" lon="10.188734">
        <ele>327.627815</ele>
        <time>2020-12-17T10:37:56.668Z</time>
      </trkpt>
      <trkpt lat="45.629870" lon="10.188789">
        <ele>328.145408</ele>
        <time>2020-12-17T10:37:59.057Z</time>
      </trkpt>
      <trkpt lat="45.629842" lon="10.188761">
        <ele>328.485481</ele>
        <time>2020-12-17T10:38:04.249Z</time>
      </trkpt>
      <trkpt lat="45.629788" lon="10.188350">
        <ele>331.396188</ele>
        <time>2020-12-17T10:38:20.208Z</time>
      </trkpt>
      <trkpt lat="45.629799" lon="10.187804">
        <ele>335.206016</ele>
        <time>2020-12-17T10:38:41.419Z</time>
      </trkpt>
      <trkpt lat="45.629766" lon="10.187634">
        <ele>336.452996</ele>
        <time>2020-12-17T10:38:53.890Z</time>
      </trkpt>
      <trkpt lat="45.629737" lon="10.187483">
        <ele>337.559771</ele>
        <time>2020-12-17T10:38:59.835Z</time>
      </trkpt>
      <trkpt lat="45.629669" lon="10.187498">
        <ele>338.255192</ele>
        <time>2020-12-17T10:39:04.180Z</time>
      </trkpt>
      <trkpt lat="45.629683" lon="10.187774">
        <ele>340.211066</ele>
        <time>2020-12-17T10:39:25.073Z</time>
      </trkpt>
      <trkpt lat="45.629598" lon="10.188008">
        <ele>342.074787</ele>
        <time>2020-12-17T10:39:36.563Z</time>
      </trkpt>
      <trkpt lat="45.629445" lon="10.188592">
        <ele>346.482636</ele>
        <time>2020-12-17T10:40:20.191Z</time>
      </trkpt>
      <trkpt lat="45.629408" lon="10.188741">
        <ele>347.600190</ele>
        <time>2020-12-17T10:40:27.258Z</time>
      </trkpt>
      <trkpt lat="45.629405" lon="10.188759">
        <ele>347.730977</ele>
        <time>2020-12-17T10:40:27.666Z</time>
      </trkpt>
      <trkpt lat="45.629338" lon="10.188905">
        <ele>348.965257</ele>
        <time>2020-12-17T10:40:37.122Z</time>
      </trkpt>
      <trkpt lat="45.629308" lon="10.188921">
        <ele>349.288876</ele>
        <time>2020-12-17T10:40:38.264Z</time>
      </trkpt>
      <trkpt lat="45.629293" lon="10.188888">
        <ele>349.567062</ele>
        <time>2020-12-17T10:40:41.333Z</time>
      </trkpt>
      <trkpt lat="45.629288" lon="10.188852">
        <ele>349.826480</ele>
        <time>2020-12-17T10:40:42.875Z</time>
      </trkpt>
      <trkpt lat="45.629303" lon="10.188746">
        <ele>350.590871</ele>
        <time>2020-12-17T10:40:48.102Z</time>
      </trkpt>
      <trkpt lat="45.629314" lon="10.188625">
        <ele>351.453293</ele>
        <time>2020-12-17T10:40:53.953Z</time>
      </trkpt>
      <trkpt lat="45.629318" lon="10.188500">
        <ele>352.337714</ele>
        <time>2020-12-17T10:41:01.961Z</time>
      </trkpt>
      <trkpt lat="45.629319" lon="10.188456">
        <ele>352.648869</ele>
        <time>2020-12-17T10:41:03.836Z</time>
      </trkpt>
      <trkpt lat="45.629340" lon="10.188183">
        <ele>354.727079</ele>
        <time>2020-12-17T10:41:18.548Z</time>
      </trkpt>
      <trkpt lat="45.629298" lon="10.187653">
        <ele>358.796083</ele>
        <time>2020-12-17T10:41:50.829Z</time>
      </trkpt>
      <trkpt lat="45.629260" lon="10.187519">
        <ele>359.899163</ele>
        <time>2020-12-17T10:42:03.977Z</time>
      </trkpt>
      <trkpt lat="45.629234" lon="10.187519">
        <ele>360.182794</ele>
        <time>2020-12-17T10:42:05.363Z</time>
      </trkpt>
      <trkpt lat="45.629149" lon="10.187935">
        <ele>363.488966</ele>
        <time>2020-12-17T10:42:29.286Z</time>
      </trkpt>
      <trkpt lat="45.628701" lon="10.188534">
        <ele>370.179632</ele>
        <time>2020-12-17T10:43:15.876Z</time>
      </trkpt>
      <trkpt lat="45.628653" lon="10.188517">
        <ele>370.719078</ele>
        <time>2020-12-17T10:43:18.213Z</time>
      </trkpt>
      <trkpt lat="45.628637" lon="10.188440">
        <ele>371.331866</ele>
        <time>2020-12-17T10:43:25.612Z</time>
      </trkpt>
      <trkpt lat="45.628666" lon="10.188362">
        <ele>372.005770</ele>
        <time>2020-12-17T10:43:29.575Z</time>
      </trkpt>
      <trkpt lat="45.628701" lon="10.188215">
        <ele>373.094542</ele>
        <time>2020-12-17T10:43:36.110Z</time>
      </trkpt>
      <trkpt lat="45.628731" lon="10.187991">
        <ele>374.598445</ele>
        <time>2020-12-17T10:43:44.322Z</time>
      </trkpt>
      <trkpt lat="45.628710" lon="10.187968">
        <ele>374.847868</ele>
        <time>2020-12-17T10:43:48.209Z</time>
      </trkpt>
      <trkpt lat="45.628701" lon="10.187959">
        <ele>374.951425</ele>
        <time>2020-12-17T10:43:49.698Z</time>
      </trkpt>
      <trkpt lat="45.628250" lon="10.188383">
        <ele>380.040817</ele>
        <time>2020-12-17T10:44:27.640Z</time>
      </trkpt>
      <trkpt lat="45.627120" lon="10.188849">
        <ele>391.485832</ele>
        <time>2020-12-17T10:46:03.416Z</time>
      </trkpt>
      <trkpt lat="45.627049" lon="10.188819">
        <ele>392.331116</ele>
        <time>2020-12-17T10:46:08.331Z</time>
      </trkpt>
      <trkpt lat="45.627046" lon="10.188759">
        <ele>392.811408</ele>
        <time>2020-12-17T10:46:14.654Z</time>
      </trkpt>
      <trkpt lat="45.627280" lon="10.188529">
        <ele>396.053366</ele>
        <time>2020-12-17T10:46:32.641Z</time>
      </trkpt>
      <trkpt lat="45.627617" lon="10.188048">
        <ele>401.489725</ele>
        <time>2020-12-17T10:47:17.250Z</time>
      </trkpt>
      <trkpt lat="45.627947" lon="10.187388">
        <ele>407.967803</ele>
        <time>2020-12-17T10:48:07.425Z</time>
      </trkpt>
      <trkpt lat="45.628056" lon="10.187171">
        <ele>410.124113</ele>
        <time>2020-12-17T10:48:29.726Z</time>
      </trkpt>
      <trkpt lat="45.627988" lon="10.187130">
        <ele>411.126726</ele>
        <time>2020-12-17T10:48:36.703Z</time>
      </trkpt>
      <trkpt lat="45.627571" lon="10.187636">
        <ele>418.556937</ele>
        <time>2020-12-17T10:49:26.428Z</time>
      </trkpt>
      <trkpt lat="45.627300" lon="10.187807">
        <ele>422.581267</ele>
        <time>2020-12-17T10:49:58.159Z</time>
      </trkpt>
      <trkpt lat="45.627186" lon="10.187783">
        <ele>424.146767</ele>
        <time>2020-12-17T10:50:10.055Z</time>
      </trkpt>
      <trkpt lat="45.627377" lon="10.187570">
        <ele>427.437520</ele>
        <time>2020-12-17T10:50:35.794Z</time>
      </trkpt>
      <trkpt lat="45.627420" lon="10.187487">
        <ele>428.418921</ele>
        <time>2020-12-17T10:50:43.143Z</time>
      </trkpt>
      <trkpt lat="45.627567" lon="10.187202">
        <ele>431.783534</ele>
        <time>2020-12-17T10:51:09.129Z</time>
      </trkpt>
      <trkpt lat="45.627746" lon="10.186667">
        <ele>437.335228</ele>
        <time>2020-12-17T10:51:49.464Z</time>
      </trkpt>
      <trkpt lat="45.627771" lon="10.186444">
        <ele>439.421588</ele>
        <time>2020-12-17T10:52:05.452Z</time>
      </trkpt>
      <trkpt lat="45.627797" lon="10.186183">
        <ele>441.857026</ele>
        <time>2020-12-17T10:52:23.178Z</time>
      </trkpt>
      <trkpt lat="45.627762" lon="10.186053">
        <ele>443.143882</ele>
        <time>2020-12-17T10:52:31.923Z</time>
      </trkpt>
      <trkpt lat="45.627434" lon="10.186440">
        <ele>448.761255</ele>
        <time>2020-12-17T10:53:12.361Z</time>
      </trkpt>
      <trkpt lat="45.627314" lon="10.186505">
        <ele>450.456364</ele>
        <time>2020-12-17T10:53:23.985Z</time>
      </trkpt>
      <trkpt lat="45.627277" lon="10.186436">
        <ele>451.259607</ele>
        <time>2020-12-17T10:53:31.093Z</time>
      </trkpt>
      <trkpt lat="45.627448" lon="10.186073">
        <ele>455.302854</ele>
        <time>2020-12-17T10:54:01.794Z</time>
      </trkpt>
      <trkpt lat="45.627545" lon="10.185714">
        <ele>458.986495</ele>
        <time>2020-12-17T10:54:30.688Z</time>
      </trkpt>
      <trkpt lat="45.627477" lon="10.185644">
        <ele>460.301392</ele>
        <time>2020-12-17T10:54:39.279Z</time>
      </trkpt>
      <trkpt lat="45.627172" lon="10.186069">
        <ele>466.984575</ele>
        <time>2020-12-17T10:55:17.614Z</time>
      </trkpt>
      <trkpt lat="45.626980" lon="10.186169">
        <ele>470.191321</ele>
        <time>2020-12-17T10:55:38.258Z</time>
      </trkpt>
      <trkpt lat="45.626921" lon="10.186150">
        <ele>471.140412</ele>
        <time>2020-12-17T10:55:44.083Z</time>
      </trkpt>
      <trkpt lat="45.626961" lon="10.185942">
        <ele>473.507889</ele>
        <time>2020-12-17T10:56:04.998Z</time>
      </trkpt>
      <trkpt lat="45.627169" lon="10.185564">
        <ele>478.786567</ele>
        <time>2020-12-17T10:56:39.990Z</time>
      </trkpt>
      <trkpt lat="45.627285" lon="10.185352">
        <ele>481.740735</ele>
        <time>2020-12-17T10:57:00.260Z</time>
      </trkpt>
      <trkpt lat="45.627422" lon="10.184619">
        <ele>490.472085</ele>
        <time>2020-12-17T10:58:10.879Z</time>
      </trkpt>
      <trkpt lat="45.627425" lon="10.184605">
        <ele>490.650521</ele>
        <time>2020-12-17T10:58:12.569Z</time>
      </trkpt>
      <trkpt lat="45.627550" lon="10.183936">
        <ele>499.089002</ele>
        <time>2020-12-17T10:59:14.458Z</time>
      </trkpt>
      <trkpt lat="45.627532" lon="10.183887">
        <ele>499.763490</ele>
        <time>2020-12-17T10:59:17.968Z</time>
      </trkpt>
      <trkpt lat="45.627496" lon="10.183879">
        <ele>500.398343</ele>
        <time>2020-12-17T10:59:21.231Z</time>
      </trkpt>
      <trkpt lat="45.627225" lon="10.184270">
        <ele>507.106824</ele>
        <time>2020-12-17T11:00:05.368Z</time>
      </trkpt>
      <trkpt lat="45.627168" lon="10.184210">
        <ele>508.340185</ele>
        <time>2020-12-17T11:00:15.775Z</time>
      </trkpt>
      <trkpt lat="45.627282" lon="10.183846">
        <ele>513.200461</ele>
        <time>2020-12-17T11:00:45.703Z</time>
      </trkpt>
      <trkpt lat="45.627532" lon="10.183050">
        <ele>522.195202</ele>
        <time>2020-12-17T11:01:57.938Z</time>
      </trkpt>
      <trkpt lat="45.628184" lon="10.181324">
        <ele>539.666997</ele>
        <time>2020-12-17T11:04:04.315Z</time>
      </trkpt>
      <trkpt lat="45.628140" lon="10.181258">
        <ele>540.479125</ele>
        <time>2020-12-17T11:04:09.027Z</time>
      </trkpt>
      <trkpt lat="45.627860" lon="10.181568">
        <ele>543.176819</ele>
        <time>2020-12-17T11:04:35.670Z</time>
      </trkpt>
      <trkpt lat="45.627752" lon="10.181623">
        <ele>544.026791</ele>
        <time>2020-12-17T11:04:46.097Z</time>
      </trkpt>
      <trkpt lat="45.627437" lon="10.181783">
        <ele>546.505153</ele>
        <time>2020-12-17T11:05:08.752Z</time>
      </trkpt>
      <trkpt lat="45.626997" lon="10.182205">
        <ele>550.433113</ele>
        <time>2020-12-17T11:05:41.619Z</time>
      </trkpt>
      <trkpt lat="45.626428" lon="10.182556">
        <ele>555.125064</ele>
        <time>2020-12-17T11:06:19.862Z</time>
      </trkpt>
      <trkpt lat="45.626277" lon="10.182496">
        <ele>556.396004</ele>
        <time>2020-12-17T11:06:28.177Z</time>
      </trkpt>
      <trkpt lat="45.625871" lon="10.181671">
        <ele>562.117178</ele>
        <time>2020-12-17T11:07:13.424Z</time>
      </trkpt>
      <trkpt lat="45.625887" lon="10.181303">
        <ele>564.208257</ele>
        <time>2020-12-17T11:07:33.396Z</time>
      </trkpt>
      <trkpt lat="45.625905" lon="10.180901">
        <ele>566.492800</ele>
        <time>2020-12-17T11:07:56.784Z</time>
      </trkpt>
      <trkpt lat="45.625964" lon="10.180720">
        <ele>567.625341</ele>
        <time>2020-12-17T11:08:08.989Z</time>
      </trkpt>
      <trkpt lat="45.626121" lon="10.180954">
        <ele>570.382049</ele>
        <time>2020-12-17T11:08:29.051Z</time>
      </trkpt>
      <trkpt lat="45.626322" lon="10.181448">
        <ele>576.961565</ele>
        <time>2020-12-17T11:09:05.498Z</time>
      </trkpt>
      <trkpt lat="45.626400" lon="10.181385">
        <ele>578.436240</ele>
        <time>2020-12-17T11:09:13.889Z</time>
      </trkpt>
      <trkpt lat="45.626396" lon="10.180997">
        <ele>582.903429</ele>
        <time>2020-12-17T11:09:44.986Z</time>
      </trkpt>
      <trkpt lat="45.626392" lon="10.180632">
        <ele>587.105871</ele>
        <time>2020-12-17T11:10:18.150Z</time>
      </trkpt>
      <trkpt lat="45.626590" lon="10.180275">
        <ele>592.351273</ele>
        <time>2020-12-17T11:10:58.188Z</time>
      </trkpt>
      <trkpt lat="45.626718" lon="10.179759">
        <ele>598.938317</ele>
        <time>2020-12-17T11:11:45.085Z</time>
      </trkpt>
      <trkpt lat="45.626737" lon="10.179458">
        <ele>604.511141</ele>
        <time>2020-12-17T11:12:13.550Z</time>
      </trkpt>
      <trkpt lat="45.626783" lon="10.179169">
        <ele>609.976412</ele>
        <time>2020-12-17T11:12:44.092Z</time>
      </trkpt>
      <trkpt lat="45.626767" lon="10.179105">
        <ele>611.229673</ele>
        <time>2020-12-17T11:12:50.334Z</time>
      </trkpt>
      <trkpt lat="45.626727" lon="10.179000">
        <ele>613.434440</ele>
        <time>2020-12-17T11:13:02.715Z</time>
      </trkpt>
      <trkpt lat="45.626574" lon="10.178392">
        <ele>625.349348</ele>
        <time>2020-12-17T11:14:09.210Z</time>
      </trkpt>
      <trkpt lat="45.626526" lon="10.177808">
        <ele>636.192112</ele>
        <time>2020-12-17T11:15:10.078Z</time>
      </trkpt>
      <trkpt lat="45.626426" lon="10.177922">
        <ele>639.564225</ele>
        <time>2020-12-17T11:15:29.031Z</time>
      </trkpt>
      <trkpt lat="45.626273" lon="10.178113">
        <ele>644.919484</ele>
        <time>2020-12-17T11:15:59.068Z</time>
      </trkpt>
      <trkpt lat="45.626269" lon="10.177922">
        <ele>648.787230</ele>
        <time>2020-12-17T11:16:19.275Z</time>
      </trkpt>
      <trkpt lat="45.626368" lon="10.176971">
        <ele>668.668381</ele>
        <time>2020-12-17T11:17:59.025Z</time>
      </trkpt>
      <trkpt lat="45.626206" lon="10.175901">
        <ele>691.306077</ele>
        <time>2020-12-17T11:19:53.227Z</time>
      </trkpt>
      <trkpt lat="45.625893" lon="10.174847">
        <ele>709.519398</ele>
        <time>2020-12-17T11:21:50.534Z</time>
      </trkpt>
      <trkpt lat="45.625874" lon="10.174589">
        <ele>713.073727</ele>
        <time>2020-12-17T11:22:15.675Z</time>
      </trkpt>
      <trkpt lat="45.626031" lon="10.174038">
        <ele>721.225358</ele>
        <time>2020-12-17T11:23:08.456Z</time>
      </trkpt>
      <trkpt lat="45.626072" lon="10.173188">
        <ele>732.898601</ele>
        <time>2020-12-17T11:24:13.772Z</time>
      </trkpt>
      <trkpt lat="45.626159" lon="10.172692">
        <ele>737.581236</ele>
        <time>2020-12-17T11:24:48.899Z</time>
      </trkpt>
      <trkpt lat="45.626344" lon="10.172292">
        <ele>741.554864</ele>
        <time>2020-12-17T11:25:19.334Z</time>
      </trkpt>
      <trkpt lat="45.626361" lon="10.172213">
        <ele>742.239742</ele>
        <time>2020-12-17T11:25:25.220Z</time>
      </trkpt>
      <trkpt lat="45.626497" lon="10.171591">
        <ele>747.639617</ele>
        <time>2020-12-17T11:26:04.821Z</time>
      </trkpt>
      <trkpt lat="45.626629" lon="10.171207">
        <ele>751.185009</ele>
        <time>2020-12-17T11:26:30.734Z</time>
      </trkpt>
      <trkpt lat="45.626831" lon="10.170995">
        <ele>754.153820</ele>
        <time>2020-12-17T11:26:50.993Z</time>
      </trkpt>
      <trkpt lat="45.627342" lon="10.170859">
        <ele>760.155113</ele>
        <time>2020-12-17T11:27:35.631Z</time>
      </trkpt>
      <trkpt lat="45.627372" lon="10.170781">
        <ele>760.869402</ele>
        <time>2020-12-17T11:27:41.337Z</time>
      </trkpt>
      <trkpt lat="45.626827" lon="10.170523">
        <ele>767.456527</ele>
        <time>2020-12-17T11:28:34.965Z</time>
      </trkpt>
      <trkpt lat="45.626665" lon="10.170502">
        <ele>769.322944</ele>
        <time>2020-12-17T11:28:50.564Z</time>
      </trkpt>
      <trkpt lat="45.626246" lon="10.170768">
        <ele>774.583081</ele>
        <time>2020-12-17T11:29:30.598Z</time>
      </trkpt>
      <trkpt lat="45.626196" lon="10.170716">
        <ele>775.292475</ele>
        <time>2020-12-17T11:29:36.892Z</time>
      </trkpt>
      <trkpt lat="45.626497" lon="10.170147">
        <ele>780.604638</ele>
        <time>2020-12-17T11:30:18.587Z</time>
      </trkpt>
      <trkpt lat="45.626549" lon="10.170075">
        <ele>781.367195</ele>
        <time>2020-12-17T11:30:26.390Z</time>
      </trkpt>
      <trkpt lat="45.626635" lon="10.169956">
        <ele>782.627952</ele>
        <time>2020-12-17T11:30:37.041Z</time>
      </trkpt>
      <trkpt lat="45.626828" lon="10.169853">
        <ele>784.798201</ele>
        <time>2020-12-17T11:30:53.777Z</time>
      </trkpt>
      <trkpt lat="45.626900" lon="10.169750">
        <ele>785.871141</ele>
        <time>2020-12-17T11:31:04.156Z</time>
      </trkpt>
      <trkpt lat="45.626946" lon="10.169609">
        <ele>787.017424</ele>
        <time>2020-12-17T11:31:13.518Z</time>
      </trkpt>
      <trkpt lat="45.626966" lon="10.169192">
        <ele>790.096854</ele>
        <time>2020-12-17T11:31:36.847Z</time>
      </trkpt>
      <trkpt lat="45.626929" lon="10.169124">
        <ele>790.731619</ele>
        <time>2020-12-17T11:31:42.569Z</time>
      </trkpt>
      <trkpt lat="45.627012" lon="10.169088">
        <ele>791.645364</ele>
        <time>2020-12-17T11:31:47.010Z</time>
      </trkpt>
      <trkpt lat="45.627244" lon="10.168777">
        <ele>794.979165</ele>
        <time>2020-12-17T11:32:09.307Z</time>
      </trkpt>
      <trkpt lat="45.627342" lon="10.168633">
        <ele>796.124821</ele>
        <time>2020-12-17T11:32:18.180Z</time>
      </trkpt>
      <trkpt lat="45.627361" lon="10.168603">
        <ele>796.355593</ele>
        <time>2020-12-17T11:32:21.992Z</time>
      </trkpt>
      <trkpt lat="45.627740" lon="10.168032">
        <ele>800.844206</ele>
        <time>2020-12-17T11:32:54.755Z</time>
      </trkpt>
      <trkpt lat="45.628007" lon="10.167808">
        <ele>803.368095</ele>
        <time>2020-12-17T11:33:13.875Z</time>
      </trkpt>
      <trkpt lat="45.628166" lon="10.167572">
        <ele>805.236548</ele>
        <time>2020-12-17T11:33:28.877Z</time>
      </trkpt>
      <trkpt lat="45.628435" lon="10.167283">
        <ele>807.979764</ele>
        <time>2020-12-17T11:33:47.523Z</time>
      </trkpt>
      <trkpt lat="45.628418" lon="10.166745">
        <ele>810.611205</ele>
        <time>2020-12-17T11:34:06.724Z</time>
      </trkpt>
      <trkpt lat="45.628596" lon="10.165998">
        <ele>813.759756</ele>
        <time>2020-12-17T11:34:31.451Z</time>
      </trkpt>
      <trkpt lat="45.628851" lon="10.165477">
        <ele>816.296904</ele>
        <time>2020-12-17T11:34:49.713Z</time>
      </trkpt>
      <trkpt lat="45.629245" lon="10.164752">
        <ele>819.958867</ele>
        <time>2020-12-17T11:35:20.519Z</time>
      </trkpt>
      <trkpt lat="45.629382" lon="10.164588">
        <ele>820.966559</ele>
        <time>2020-12-17T11:35:31.602Z</time>
      </trkpt>
      <trkpt lat="45.629459" lon="10.164190">
        <ele>822.595274</ele>
        <time>2020-12-17T11:35:46.541Z</time>
      </trkpt>
      <trkpt lat="45.629524" lon="10.163986">
        <ele>823.479451</ele>
        <time>2020-12-17T11:35:56.132Z</time>
      </trkpt>
      <trkpt lat="45.629665" lon="10.163688">
        <ele>824.898549</ele>
        <time>2020-12-17T11:36:08.480Z</time>
      </trkpt>
      <trkpt lat="45.629711" lon="10.163652">
        <ele>825.194304</ele>
        <time>2020-12-17T11:36:11.928Z</time>
      </trkpt>
      <trkpt lat="45.629943" lon="10.163469">
        <ele>826.688664</ele>
        <time>2020-12-17T11:36:22.833Z</time>
      </trkpt>
      <trkpt lat="45.630015" lon="10.163412">
        <ele>827.152826</ele>
        <time>2020-12-17T11:36:28.311Z</time>
      </trkpt>
      <trkpt lat="45.630429" lon="10.163302">
        <ele>829.527782</ele>
        <time>2020-12-17T11:36:46.201Z</time>
      </trkpt>
      <trkpt lat="45.630762" lon="10.163183">
        <ele>829.432974</ele>
        <time>2020-12-17T11:36:58.817Z</time>
      </trkpt>
      <trkpt lat="45.630920" lon="10.163126">
        <ele>829.082282</ele>
        <time>2020-12-17T11:37:03.187Z</time>
      </trkpt>
      <trkpt lat="45.631113" lon="10.163151">
        <ele>828.665218</ele>
        <time>2020-12-17T11:37:10.417Z</time>
      </trkpt>
      <trkpt lat="45.631163" lon="10.163157">
        <ele>828.557233</ele>
        <time>2020-12-17T11:37:11.642Z</time>
      </trkpt>
      <trkpt lat="45.631701" lon="10.163251">
        <ele>827.390770</ele>
        <time>2020-12-17T11:37:20.396Z</time>
      </trkpt>
      <trkpt lat="45.632359" lon="10.163531">
        <ele>824.928717</ele>
        <time>2020-12-17T11:37:28.896Z</time>
      </trkpt>
      <trkpt lat="45.632639" lon="10.163527">
        <ele>821.495324</ele>
        <time>2020-12-17T11:37:32.245Z</time>
      </trkpt>
      <trkpt lat="45.633061" lon="10.163377">
        <ele>816.163535</ele>
        <time>2020-12-17T11:37:37.240Z</time>
      </trkpt>
      <trkpt lat="45.633462" lon="10.163459">
        <ele>811.196660</ele>
        <time>2020-12-17T11:37:41.840Z</time>
      </trkpt>
      <trkpt lat="45.633921" lon="10.163266">
        <ele>805.330409</ele>
        <time>2020-12-17T11:37:47.347Z</time>
      </trkpt>
      <trkpt lat="45.634278" lon="10.162946">
        <ele>802.421234</ele>
        <time>2020-12-17T11:37:52.266Z</time>
      </trkpt>
      <trkpt lat="45.634296" lon="10.162908">
        <ele>802.255180</ele>
        <time>2020-12-17T11:37:52.631Z</time>
      </trkpt>
      <trkpt lat="45.634350" lon="10.162750">
        <ele>801.618933</ele>
        <time>2020-12-17T11:37:54.332Z</time>
      </trkpt>
      <trkpt lat="45.634518" lon="10.162466">
        <ele>800.273106</ele>
        <time>2020-12-17T11:37:57.491Z</time>
      </trkpt>
      <trkpt lat="45.634567" lon="10.162440">
        <ele>800.002692</ele>
        <time>2020-12-17T11:37:59.501Z</time>
      </trkpt>
      <trkpt lat="45.634879" lon="10.161931">
        <ele>797.553828</ele>
        <time>2020-12-17T11:38:06.723Z</time>
      </trkpt>
      <trkpt lat="45.635126" lon="10.161743">
        <ele>796.106131</ele>
        <time>2020-12-17T11:38:10.907Z</time>
      </trkpt>
      <trkpt lat="45.635389" lon="10.161634">
        <ele>794.827452</ele>
        <time>2020-12-17T11:38:14.930Z</time>
      </trkpt>
      <trkpt lat="45.635465" lon="10.161574">
        <ele>795.224801</ele>
        <time>2020-12-17T11:38:19.658Z</time>
      </trkpt>
      <trkpt lat="45.635699" lon="10.161388">
        <ele>796.450177</ele>
        <time>2020-12-17T11:38:27.407Z</time>
      </trkpt>
      <trkpt lat="45.635858" lon="10.161263">
        <ele>797.280659</ele>
        <time>2020-12-17T11:38:37.385Z</time>
      </trkpt>
      <trkpt lat="45.636033" lon="10.161121">
        <ele>798.201612</ele>
        <time>2020-12-17T11:38:43.686Z</time>
      </trkpt>
      <trkpt lat="45.636195" lon="10.160994">
        <ele>799.047211</ele>
        <time>2020-12-17T11:38:51.822Z</time>
      </trkpt>
      <trkpt lat="45.636845" lon="10.159874">
        <ele>804.845117</ele>
        <time>2020-12-17T11:39:45.530Z</time>
      </trkpt>
      <trkpt lat="45.636864" lon="10.159804">
        <ele>805.471063</ele>
        <time>2020-12-17T11:39:49.284Z</time>
      </trkpt>
      <trkpt lat="45.636900" lon="10.159663">
        <ele>806.722352</ele>
        <time>2020-12-17T11:39:51.945Z</time>
      </trkpt>
      <trkpt lat="45.637014" lon="10.159104">
        <ele>811.576338</ele>
        <time>2020-12-17T11:40:17.221Z</time>
      </trkpt>
      <trkpt lat="45.637066" lon="10.158953">
        <ele>812.979460</ele>
        <time>2020-12-17T11:40:27.638Z</time>
      </trkpt>
      <trkpt lat="45.637091" lon="10.158881">
        <ele>813.649583</ele>
        <time>2020-12-17T11:40:35.218Z</time>
      </trkpt>
      <trkpt lat="45.637202" lon="10.158698">
        <ele>815.669083</ele>
        <time>2020-12-17T11:40:43.094Z</time>
      </trkpt>
      <trkpt lat="45.637471" lon="10.158510">
        <ele>819.238567</ele>
        <time>2020-12-17T11:41:12.882Z</time>
      </trkpt>
      <trkpt lat="45.637771" lon="10.158473">
        <ele>822.828488</ele>
        <time>2020-12-17T11:41:43.941Z</time>
      </trkpt>
      <trkpt lat="45.637918" lon="10.158522">
        <ele>824.661578</ele>
        <time>2020-12-17T11:41:53.167Z</time>
      </trkpt>
      <trkpt lat="45.638021" lon="10.158594">
        <ele>826.271217</ele>
        <time>2020-12-17T11:42:08.460Z</time>
      </trkpt>
      <trkpt lat="45.638261" lon="10.158817">
        <ele>830.289558</ele>
        <time>2020-12-17T11:42:37.825Z</time>
      </trkpt>
      <trkpt lat="45.638385" lon="10.158970">
        <ele>832.588901</ele>
        <time>2020-12-17T11:42:59.701Z</time>
      </trkpt>
      <trkpt lat="45.638689" lon="10.159346">
        <ele>838.231787</ele>
        <time>2020-12-17T11:43:37.908Z</time>
      </trkpt>
      <trkpt lat="45.639089" lon="10.159973">
        <ele>846.563986</ele>
        <time>2020-12-17T11:44:32.172Z</time>
      </trkpt>
      <trkpt lat="45.639306" lon="10.160241">
        <ele>849.754545</ele>
        <time>2020-12-17T11:44:49.920Z</time>
      </trkpt>
      <trkpt lat="45.639438" lon="10.160404">
        <ele>849.923673</ele>
        <time>2020-12-17T11:44:59.674Z</time>
      </trkpt>
      <trkpt lat="45.640242" lon="10.160957">
        <ele>850.788889</ele>
        <time>2020-12-17T11:45:23.668Z</time>
      </trkpt>
      <trkpt lat="45.640441" lon="10.161230">
        <ele>851.056309</ele>
        <time>2020-12-17T11:45:27.610Z</time>
      </trkpt>
      <trkpt lat="45.640585" lon="10.161379">
        <ele>851.228677</ele>
        <time>2020-12-17T11:45:30.066Z</time>
      </trkpt>
      <trkpt lat="45.640848" lon="10.161537">
        <ele>851.024607</ele>
        <time>2020-12-17T11:45:33.852Z</time>
      </trkpt>
      <trkpt lat="45.640875" lon="10.161552">
        <ele>850.855153</ele>
        <time>2020-12-17T11:45:34.196Z</time>
      </trkpt>
      <trkpt lat="45.640910" lon="10.161570">
        <ele>850.637559</ele>
        <time>2020-12-17T11:45:34.722Z</time>
      </trkpt>
      <trkpt lat="45.641109" lon="10.161680">
        <ele>849.389440</ele>
        <time>2020-12-17T11:45:37.498Z</time>
      </trkpt>
      <trkpt lat="45.641451" lon="10.162077">
        <ele>846.812634</ele>
        <time>2020-12-17T11:45:43.300Z</time>
      </trkpt>
      <trkpt lat="45.641532" lon="10.162146">
        <ele>846.261086</ele>
        <time>2020-12-17T11:45:44.492Z</time>
      </trkpt>
      <trkpt lat="45.641597" lon="10.162161">
        <ele>845.875902</ele>
        <time>2020-12-17T11:45:45.327Z</time>
      </trkpt>
      <trkpt lat="45.641692" lon="10.162134">
        <ele>845.309260</ele>
        <time>2020-12-17T11:45:46.601Z</time>
      </trkpt>
      <trkpt lat="45.641791" lon="10.162120">
        <ele>844.727260</ele>
        <time>2020-12-17T11:45:47.930Z</time>
      </trkpt>
      <trkpt lat="45.641872" lon="10.162127">
        <ele>844.252524</ele>
        <time>2020-12-17T11:45:48.944Z</time>
      </trkpt>
      <trkpt lat="45.641988" lon="10.162199">
        <ele>843.512750</ele>
        <time>2020-12-17T11:45:50.541Z</time>
      </trkpt>
      <trkpt lat="45.642065" lon="10.162211">
        <ele>843.059614</ele>
        <time>2020-12-17T11:45:51.534Z</time>
      </trkpt>
      <trkpt lat="45.642259" lon="10.162242">
        <ele>841.917601</ele>
        <time>2020-12-17T11:45:53.966Z</time>
      </trkpt>
      <trkpt lat="45.642445" lon="10.162372">
        <ele>840.704403</ele>
        <time>2020-12-17T11:45:56.640Z</time>
      </trkpt>
      <trkpt lat="45.642509" lon="10.162400">
        <ele>840.308934</ele>
        <time>2020-12-17T11:45:57.492Z</time>
      </trkpt>
      <trkpt lat="45.642807" lon="10.162437">
        <ele>838.541441</ele>
        <time>2020-12-17T11:46:01.396Z</time>
      </trkpt>
      <trkpt lat="45.642871" lon="10.162453">
        <ele>838.157535</ele>
        <time>2020-12-17T11:46:02.207Z</time>
      </trkpt>
      <trkpt lat="45.642954" lon="10.162497">
        <ele>837.634491</ele>
        <time>2020-12-17T11:46:03.343Z</time>
      </trkpt>
      <trkpt lat="45.643138" lon="10.162660">
        <ele>836.355608</ele>
        <time>2020-12-17T11:46:06.129Z</time>
      </trkpt>
      <trkpt lat="45.643292" lon="10.162758">
        <ele>835.359634</ele>
        <time>2020-12-17T11:46:08.327Z</time>
      </trkpt>
      <trkpt lat="45.643463" lon="10.162868">
        <ele>834.251720</ele>
        <time>2020-12-17T11:46:10.873Z</time>
      </trkpt>
      <trkpt lat="45.643509" lon="10.162893">
        <ele>833.960949</ele>
        <time>2020-12-17T11:46:11.491Z</time>
      </trkpt>
      <trkpt lat="45.643683" lon="10.162989">
        <ele>832.858955</ele>
        <time>2020-12-17T11:46:14.001Z</time>
      </trkpt>
      <trkpt lat="45.643966" lon="10.163208">
        <ele>830.957677</ele>
        <time>2020-12-17T11:46:18.266Z</time>
      </trkpt>
      <trkpt lat="45.644188" lon="10.163192">
        <ele>829.621238</ele>
        <time>2020-12-17T11:46:21.184Z</time>
      </trkpt>
      <trkpt lat="45.644563" lon="10.162662">
        <ele>826.394653</ele>
        <time>2020-12-17T11:46:27.802Z</time>
      </trkpt>
      <trkpt lat="45.644997" lon="10.162782">
        <ele>823.689189</ele>
        <time>2020-12-17T11:46:33.245Z</time>
      </trkpt>
      <trkpt lat="45.645136" lon="10.162387">
        <ele>821.797006</ele>
        <time>2020-12-17T11:46:37.392Z</time>
      </trkpt>
      <trkpt lat="45.645301" lon="10.162189">
        <ele>820.478818</ele>
        <time>2020-12-17T11:46:40.077Z</time>
      </trkpt>
      <trkpt lat="45.645455" lon="10.162103">
        <ele>819.466978</ele>
        <time>2020-12-17T11:46:42.476Z</time>
      </trkpt>
      <trkpt lat="45.645473" lon="10.162100">
        <ele>819.356064</ele>
        <time>2020-12-17T11:46:42.679Z</time>
      </trkpt>
      <trkpt lat="45.645633" lon="10.162067">
        <ele>819.399718</ele>
        <time>2020-12-17T11:46:44.824Z</time>
      </trkpt>
      <trkpt lat="45.645679" lon="10.162002">
        <ele>819.452708</ele>
        <time>2020-12-17T11:46:45.823Z</time>
      </trkpt>
      <trkpt lat="45.645666" lon="10.161115">
        <ele>819.960999</ele>
        <time>2020-12-17T11:46:56.663Z</time>
      </trkpt>
      <trkpt lat="45.645718" lon="10.160801">
        <ele>820.145874</ele>
        <time>2020-12-17T11:47:01.640Z</time>
      </trkpt>
      <trkpt lat="45.645893" lon="10.160538">
        <ele>820.353892</ele>
        <time>2020-12-17T11:47:07.501Z</time>
      </trkpt>
      <trkpt lat="45.646256" lon="10.160330">
        <ele>820.674357</ele>
        <time>2020-12-17T11:47:19.921Z</time>
      </trkpt>
      <trkpt lat="45.646345" lon="10.160334">
        <ele>820.747330</ele>
        <time>2020-12-17T11:47:28.870Z</time>
      </trkpt>
      <trkpt lat="45.646482" lon="10.160266">
        <ele>822.226490</ele>
        <time>2020-12-17T11:47:37.984Z</time>
      </trkpt>
      <trkpt lat="45.646610" lon="10.160187">
        <ele>823.698936</ele>
        <time>2020-12-17T11:47:43.521Z</time>
      </trkpt>
      <trkpt lat="45.646700" lon="10.160131">
        <ele>824.735579</ele>
        <time>2020-12-17T11:47:54.946Z</time>
      </trkpt>
      <trkpt lat="45.646704" lon="10.160168">
        <ele>825.012030</ele>
        <time>2020-12-17T11:47:57.558Z</time>
      </trkpt>
      <trkpt lat="45.646567" lon="10.160506">
        <ele>827.896937</ele>
        <time>2020-12-17T11:48:11.293Z</time>
      </trkpt>
      <trkpt lat="45.646538" lon="10.160800">
        <ele>830.089306</ele>
        <time>2020-12-17T11:48:28.588Z</time>
      </trkpt>
      <trkpt lat="45.646410" lon="10.161261">
        <ele>833.751945</ele>
        <time>2020-12-17T11:48:55.164Z</time>
      </trkpt>
      <trkpt lat="45.646392" lon="10.161332">
        <ele>834.309612</ele>
        <time>2020-12-17T11:48:58.254Z</time>
      </trkpt>
      <trkpt lat="45.646378" lon="10.161405">
        <ele>834.868553</ele>
        <time>2020-12-17T11:49:01.385Z</time>
      </trkpt>
      <trkpt lat="45.646368" lon="10.161492">
        <ele>835.519580</ele>
        <time>2020-12-17T11:49:07.515Z</time>
      </trkpt>
      <trkpt lat="45.646366" lon="10.161579">
        <ele>836.162328</ele>
        <time>2020-12-17T11:49:16.485Z</time>
      </trkpt>
      <trkpt lat="45.646533" lon="10.162764">
        <ele>847.088474</ele>
        <time>2020-12-17T11:50:36.562Z</time>
      </trkpt>
      <trkpt lat="45.646489" lon="10.163104">
        <ele>850.598209</ele>
        <time>2020-12-17T11:51:02.248Z</time>
      </trkpt>
      <trkpt lat="45.646390" lon="10.163339">
        <ele>853.383161</ele>
        <time>2020-12-17T11:51:23.402Z</time>
      </trkpt>
      <trkpt lat="45.646001" lon="10.163856">
        <ele>861.092854</ele>
        <time>2020-12-17T11:52:21.029Z</time>
      </trkpt>
      <trkpt lat="45.645953" lon="10.163970">
        <ele>862.443669</ele>
        <time>2020-12-17T11:52:30.761Z</time>
      </trkpt>
      <trkpt lat="45.645899" lon="10.164098">
        <ele>863.961164</ele>
        <time>2020-12-17T11:52:45.411Z</time>
      </trkpt>
      <trkpt lat="45.645877" lon="10.164523">
        <ele>868.286946</ele>
        <time>2020-12-17T11:53:15.188Z</time>
      </trkpt>
      <trkpt lat="45.645589" lon="10.164692">
        <ele>872.806818</ele>
        <time>2020-12-17T11:53:47.776Z</time>
      </trkpt>
      <trkpt lat="45.645309" lon="10.164983">
        <ele>877.832125</ele>
        <time>2020-12-17T11:54:26.934Z</time>
      </trkpt>
      <trkpt lat="45.645199" lon="10.165159">
        <ele>880.228503</ele>
        <time>2020-12-17T11:54:48.493Z</time>
      </trkpt>
      <trkpt lat="45.645196" lon="10.165292">
        <ele>881.579253</ele>
        <time>2020-12-17T11:54:57.168Z</time>
      </trkpt>
      <trkpt lat="45.645362" lon="10.165710">
        <ele>886.459056</ele>
        <time>2020-12-17T11:55:34.445Z</time>
      </trkpt>
      <trkpt lat="45.645478" lon="10.165801">
        <ele>888.380012</ele>
        <time>2020-12-17T11:55:45.482Z</time>
      </trkpt>
      <trkpt lat="45.645693" lon="10.165690">
        <ele>891.698863</ele>
        <time>2020-12-17T11:56:06.515Z</time>
      </trkpt>
      <trkpt lat="45.645765" lon="10.165684">
        <ele>892.415091</ele>
        <time>2020-12-17T11:56:12.667Z</time>
      </trkpt>
      <trkpt lat="45.645746" lon="10.165808">
        <ele>893.146498</ele>
        <time>2020-12-17T11:56:20.176Z</time>
      </trkpt>
      <trkpt lat="45.645623" lon="10.166389">
        <ele>896.644161</ele>
        <time>2020-12-17T11:56:56.806Z</time>
      </trkpt>
      <trkpt lat="45.645452" lon="10.166840">
        <ele>899.600261</ele>
        <time>2020-12-17T11:57:22.811Z</time>
      </trkpt>
      <trkpt lat="45.645437" lon="10.167187">
        <ele>901.603392</ele>
        <time>2020-12-17T11:57:36.513Z</time>
      </trkpt>
      <trkpt lat="45.645431" lon="10.167336">
        <ele>902.463309</ele>
        <time>2020-12-17T11:57:42.633Z</time>
      </trkpt>
      <trkpt lat="45.645838" lon="10.167319">
        <ele>905.819091</ele>
        <time>2020-12-17T11:58:09.163Z</time>
      </trkpt>
      <trkpt lat="45.646175" lon="10.167280">
        <ele>908.736688</ele>
        <time>2020-12-17T11:58:31.391Z</time>
      </trkpt>
      <trkpt lat="45.646348" lon="10.167204">
        <ele>910.336768</ele>
        <time>2020-12-17T11:58:39.802Z</time>
      </trkpt>
      <trkpt lat="45.646433" lon="10.167192">
        <ele>911.091943</ele>
        <time>2020-12-17T11:58:46.117Z</time>
      </trkpt>
      <trkpt lat="45.646833" lon="10.167135">
        <ele>914.646031</ele>
        <time>2020-12-17T11:59:16.008Z</time>
      </trkpt>
      <trkpt lat="45.647009" lon="10.167205">
        <ele>916.261156</ele>
        <time>2020-12-17T11:59:28.032Z</time>
      </trkpt>
      <trkpt lat="45.647105" lon="10.167244">
        <ele>917.143502</ele>
        <time>2020-12-17T11:59:33.146Z</time>
      </trkpt>
      <trkpt lat="45.647181" lon="10.167255">
        <ele>917.818883</ele>
        <time>2020-12-17T11:59:43.663Z</time>
      </trkpt>
      <trkpt lat="45.647901" lon="10.167070">
        <ele>925.596879</ele>
        <time>2020-12-17T12:00:47.442Z</time>
      </trkpt>
      <trkpt lat="45.648218" lon="10.167069">
        <ele>930.724509</ele>
        <time>2020-12-17T12:01:16.283Z</time>
      </trkpt>
      <trkpt lat="45.648779" lon="10.166823">
        <ele>940.215709</ele>
        <time>2020-12-17T12:02:27.172Z</time>
      </trkpt>
      <trkpt lat="45.648953" lon="10.166666">
        <ele>943.543349</ele>
        <time>2020-12-17T12:02:50.951Z</time>
      </trkpt>
      <trkpt lat="45.649766" lon="10.166689">
        <ele>957.041993</ele>
        <time>2020-12-17T12:04:35.482Z</time>
      </trkpt>
      <trkpt lat="45.649883" lon="10.166718">
        <ele>959.098243</ele>
        <time>2020-12-17T12:04:51.863Z</time>
      </trkpt>
      <trkpt lat="45.650110" lon="10.166775">
        <ele>963.089247</ele>
        <time>2020-12-17T12:05:18.750Z</time>
      </trkpt>
      <trkpt lat="45.650154" lon="10.166786">
        <ele>963.862732</ele>
        <time>2020-12-17T12:05:25.394Z</time>
      </trkpt>
      <trkpt lat="45.650330" lon="10.166838">
        <ele>966.974808</ele>
        <time>2020-12-17T12:05:43.323Z</time>
      </trkpt>
      <trkpt lat="45.650395" lon="10.166836">
        <ele>968.100658</ele>
        <time>2020-12-17T12:05:51.906Z</time>
      </trkpt>
      <trkpt lat="45.650553" lon="10.166830">
        <ele>970.837671</ele>
        <time>2020-12-17T12:06:13.101Z</time>
      </trkpt>
      <trkpt lat="45.650636" lon="10.166840">
        <ele>972.280051</ele>
        <time>2020-12-17T12:06:21.027Z</time>
      </trkpt>
      <trkpt lat="45.650728" lon="10.166843">
        <ele>973.873608</ele>
        <time>2020-12-17T12:06:32.014Z</time>
      </trkpt>
      <trkpt lat="45.650873" lon="10.166838">
        <ele>976.385269</ele>
        <time>2020-12-17T12:06:52.566Z</time>
      </trkpt>
      <trkpt lat="45.651453" lon="10.166947">
        <ele>983.926323</ele>
        <time>2020-12-17T12:07:55.418Z</time>
      </trkpt>
      <trkpt lat="45.651938" lon="10.167038">
        <ele>986.250094</ele>
        <time>2020-12-17T12:08:40.110Z</time>
      </trkpt>
      <trkpt lat="45.652010" lon="10.167116">
        <ele>986.679144</ele>
        <time>2020-12-17T12:08:44.418Z</time>
      </trkpt>
      <trkpt lat="45.652137" lon="10.167321">
        <ele>987.588771</ele>
        <time>2020-12-17T12:08:59.472Z</time>
      </trkpt>
      <trkpt lat="45.652292" lon="10.167417">
        <ele>988.391159</ele>
        <time>2020-12-17T12:09:08.319Z</time>
      </trkpt>
      <trkpt lat="45.652353" lon="10.167468">
        <ele>988.726804</ele>
        <time>2020-12-17T12:09:11.782Z</time>
      </trkpt>
      <trkpt lat="45.652372" lon="10.167488">
        <ele>988.838867</ele>
        <time>2020-12-17T12:09:13.439Z</time>
      </trkpt>
      <trkpt lat="45.652637" lon="10.167574">
        <ele>990.129760</ele>
        <time>2020-12-17T12:09:20.921Z</time>
      </trkpt>
      <trkpt lat="45.652825" lon="10.167669">
        <ele>991.076949</ele>
        <time>2020-12-17T12:09:25.400Z</time>
      </trkpt>
      <trkpt lat="45.653790" lon="10.168158">
        <ele>979.067572</ele>
        <time>2020-12-17T12:09:47.060Z</time>
      </trkpt>
      <trkpt lat="45.653855" lon="10.168200">
        <ele>978.121168</ele>
        <time>2020-12-17T12:09:48.502Z</time>
      </trkpt>
      <trkpt lat="45.653989" lon="10.168375">
        <ele>975.713623</ele>
        <time>2020-12-17T12:09:52.297Z</time>
      </trkpt>
      <trkpt lat="45.654066" lon="10.168464">
        <ele>974.400081</ele>
        <time>2020-12-17T12:09:54.217Z</time>
      </trkpt>
      <trkpt lat="45.654191" lon="10.168570">
        <ele>972.471918</ele>
        <time>2020-12-17T12:09:57.168Z</time>
      </trkpt>
      <trkpt lat="45.654455" lon="10.169142">
        <ele>966.003914</ele>
        <time>2020-12-17T12:10:06.670Z</time>
      </trkpt>
      <trkpt lat="45.655069" lon="10.170057">
        <ele>953.379580</ele>
        <time>2020-12-17T12:10:23.988Z</time>
      </trkpt>
      <trkpt lat="45.655316" lon="10.170344">
        <ele>948.848656</ele>
        <time>2020-12-17T12:10:30.932Z</time>
      </trkpt>
      <trkpt lat="45.655504" lon="10.170595">
        <ele>945.187106</ele>
        <time>2020-12-17T12:10:36.643Z</time>
      </trkpt>
      <trkpt lat="45.655747" lon="10.170946">
        <ele>941.459794</ele>
        <time>2020-12-17T12:10:44.495Z</time>
      </trkpt>
      <trkpt lat="45.656006" lon="10.171351">
        <ele>939.723383</ele>
        <time>2020-12-17T12:10:54.223Z</time>
      </trkpt>
      <trkpt lat="45.656087" lon="10.171495">
        <ele>939.138696</ele>
        <time>2020-12-17T12:10:57.074Z</time>
      </trkpt>
      <trkpt lat="45.656159" lon="10.171523">
        <ele>938.801031</ele>
        <time>2020-12-17T12:11:02.097Z</time>
      </trkpt>
      <trkpt lat="45.656243" lon="10.171529">
        <ele>938.420408</ele>
        <time>2020-12-17T12:11:07.120Z</time>
      </trkpt>
      <trkpt lat="45.656299" lon="10.171557">
        <ele>938.151944</ele>
        <time>2020-12-17T12:11:11.156Z</time>
      </trkpt>
      <trkpt lat="45.656308" lon="10.171560">
        <ele>938.110123</ele>
        <time>2020-12-17T12:11:13.124Z</time>
      </trkpt>
      <trkpt lat="45.656408" lon="10.171619">
        <ele>937.620593</ele>
        <time>2020-12-17T12:11:19.267Z</time>
      </trkpt>
      <trkpt lat="45.656595" lon="10.171608">
        <ele>936.773593</ele>
        <time>2020-12-17T12:11:31.295Z</time>
      </trkpt>
      <trkpt lat="45.657020" lon="10.171939">
        <ele>934.583706</ele>
        <time>2020-12-17T12:12:01.934Z</time>
      </trkpt>
      <trkpt lat="45.657264" lon="10.172128">
        <ele>932.651827</ele>
        <time>2020-12-17T12:12:17.911Z</time>
      </trkpt>
      <trkpt lat="45.657527" lon="10.172228">
        <ele>929.895433</ele>
        <time>2020-12-17T12:12:33.381Z</time>
      </trkpt>
      <trkpt lat="45.658099" lon="10.172580">
        <ele>923.588450</ele>
        <time>2020-12-17T12:13:07.764Z</time>
      </trkpt>
      <trkpt lat="45.658149" lon="10.172578">
        <ele>923.081802</ele>
        <time>2020-12-17T12:13:10.587Z</time>
      </trkpt>
      <trkpt lat="45.658144" lon="10.172522">
        <ele>922.682126</ele>
        <time>2020-12-17T12:13:11.366Z</time>
      </trkpt>
      <trkpt lat="45.658139" lon="10.172384">
        <ele>921.703838</ele>
        <time>2020-12-17T12:13:13.667Z</time>
      </trkpt>
      <trkpt lat="45.657986" lon="10.171905">
        <ele>917.975399</ele>
        <time>2020-12-17T12:13:21.315Z</time>
      </trkpt>
      <trkpt lat="45.658016" lon="10.171616">
        <ele>915.906966</ele>
        <time>2020-12-17T12:13:25.436Z</time>
      </trkpt>
      <trkpt lat="45.658240" lon="10.171334">
        <ele>911.270068</ele>
        <time>2020-12-17T12:13:31.362Z</time>
      </trkpt>
      <trkpt lat="45.658465" lon="10.171283">
        <ele>907.617991</ele>
        <time>2020-12-17T12:13:36.127Z</time>
      </trkpt>
      <trkpt lat="45.658578" lon="10.171278">
        <ele>905.805564</ele>
        <time>2020-12-17T12:13:38.322Z</time>
      </trkpt>
      <trkpt lat="45.658556" lon="10.171203">
        <ele>904.894182</ele>
        <time>2020-12-17T12:13:39.551Z</time>
      </trkpt>
      <trkpt lat="45.658269" lon="10.170827">
        <ele>898.655624</ele>
        <time>2020-12-17T12:13:47.168Z</time>
      </trkpt>
      <trkpt lat="45.658165" lon="10.170779">
        <ele>896.903743</ele>
        <time>2020-12-17T12:13:49.934Z</time>
      </trkpt>
      <trkpt lat="45.658212" lon="10.170671">
        <ele>895.478198</ele>
        <time>2020-12-17T12:13:51.665Z</time>
      </trkpt>
      <trkpt lat="45.658301" lon="10.170437">
        <ele>892.493149</ele>
        <time>2020-12-17T12:13:55.438Z</time>
      </trkpt>
      <trkpt lat="45.658306" lon="10.170207">
        <ele>889.914752</ele>
        <time>2020-12-17T12:13:58.769Z</time>
      </trkpt>
      <trkpt lat="45.658070" lon="10.169645">
        <ele>882.973326</ele>
        <time>2020-12-17T12:14:07.941Z</time>
      </trkpt>
      <trkpt lat="45.658084" lon="10.169564">
        <ele>882.127416</ele>
        <time>2020-12-17T12:14:09.146Z</time>
      </trkpt>
      <trkpt lat="45.657958" lon="10.169158">
        <ele>877.623894</ele>
        <time>2020-12-17T12:14:15.794Z</time>
      </trkpt>
      <trkpt lat="45.657819" lon="10.168228">
        <ele>867.982401</ele>
        <time>2020-12-17T12:14:29.349Z</time>
      </trkpt>
      <trkpt lat="45.657669" lon="10.167569">
        <ele>860.956100</ele>
        <time>2020-12-17T12:14:39.125Z</time>
      </trkpt>
      <trkpt lat="45.657486" lon="10.166993">
        <ele>854.428171</ele>
        <time>2020-12-17T12:14:48.102Z</time>
      </trkpt>
      <trkpt lat="45.657338" lon="10.166601">
        <ele>849.828533</ele>
        <time>2020-12-17T12:14:54.447Z</time>
      </trkpt>
      <trkpt lat="45.657275" lon="10.166433">
        <ele>847.860258</ele>
        <time>2020-12-17T12:14:57.129Z</time>
      </trkpt>
      <trkpt lat="45.657112" lon="10.166042">
        <ele>843.160140</ele>
        <time>2020-12-17T12:15:03.425Z</time>
      </trkpt>
      <trkpt lat="45.656842" lon="10.165679">
        <ele>837.687563</ele>
        <time>2020-12-17T12:15:10.813Z</time>
      </trkpt>
      <trkpt lat="45.656743" lon="10.165538">
        <ele>835.624240</ele>
        <time>2020-12-17T12:15:13.908Z</time>
      </trkpt>
      <trkpt lat="45.656796" lon="10.165314">
        <ele>833.724973</ele>
        <time>2020-12-17T12:15:16.000Z</time>
      </trkpt>
      <trkpt lat="45.656895" lon="10.164655">
        <ele>830.608570</ele>
        <time>2020-12-17T12:15:22.902Z</time>
      </trkpt>
      <trkpt lat="45.656961" lon="10.164477">
        <ele>829.676976</ele>
        <time>2020-12-17T12:15:25.097Z</time>
      </trkpt>
      <trkpt lat="45.656966" lon="10.164481">
        <ele>829.639083</ele>
        <time>2020-12-17T12:15:25.458Z</time>
      </trkpt>
      <trkpt lat="45.657008" lon="10.164372">
        <ele>829.063628</ele>
        <time>2020-12-17T12:15:29.188Z</time>
      </trkpt>
      <trkpt lat="45.657039" lon="10.164250">
        <ele>828.463457</ele>
        <time>2020-12-17T12:15:33.080Z</time>
      </trkpt>
      <trkpt lat="45.657027" lon="10.164034">
        <ele>827.461656</ele>
        <time>2020-12-17T12:15:39.585Z</time>
      </trkpt>
      <trkpt lat="45.657022" lon="10.163961">
        <ele>827.122532</ele>
        <time>2020-12-17T12:15:41.817Z</time>
      </trkpt>
      <trkpt lat="45.656988" lon="10.163994">
        <ele>826.850762</ele>
        <time>2020-12-17T12:15:43.575Z</time>
      </trkpt>
      <trkpt lat="45.656931" lon="10.164124">
        <ele>826.141248</ele>
        <time>2020-12-17T12:15:48.174Z</time>
      </trkpt>
      <trkpt lat="45.656826" lon="10.164332">
        <ele>824.954993</ele>
        <time>2020-12-17T12:15:55.867Z</time>
      </trkpt>
      <trkpt lat="45.656739" lon="10.164667">
        <ele>823.302694</ele>
        <time>2020-12-17T12:16:06.590Z</time>
      </trkpt>
      <trkpt lat="45.656713" lon="10.164795">
        <ele>822.686413</ele>
        <time>2020-12-17T12:16:10.585Z</time>
      </trkpt>
      <trkpt lat="45.656584" lon="10.164899">
        <ele>821.954361</ele>
        <time>2020-12-17T12:16:16.920Z</time>
      </trkpt>
      <trkpt lat="45.656517" lon="10.164828">
        <ele>821.646407</ele>
        <time>2020-12-17T12:16:20.489Z</time>
      </trkpt>
      <trkpt lat="45.656405" lon="10.164651">
        <ele>821.030026</ele>
        <time>2020-12-17T12:16:27.643Z</time>
      </trkpt>
      <trkpt lat="45.656376" lon="10.164706">
        <ele>820.852167</ele>
        <time>2020-12-17T12:16:29.714Z</time>
      </trkpt>
      <trkpt lat="45.656187" lon="10.164501">
        <ele>819.976157</ele>
        <time>2020-12-17T12:16:33.741Z</time>
      </trkpt>
      <trkpt lat="45.656047" lon="10.164187">
        <ele>819.014644</ele>
        <time>2020-12-17T12:16:43.289Z</time>
      </trkpt>
      <trkpt lat="45.655971" lon="10.163646">
        <ele>817.590050</ele>
        <time>2020-12-17T12:16:49.505Z</time>
      </trkpt>
      <trkpt lat="45.655567" lon="10.162615">
        <ele>811.955653</ele>
        <time>2020-12-17T12:16:59.535Z</time>
      </trkpt>
      <trkpt lat="45.655444" lon="10.162301">
        <ele>808.814606</ele>
        <time>2020-12-17T12:17:02.513Z</time>
      </trkpt>
      <trkpt lat="45.655395" lon="10.161938">
        <ele>805.588390</ele>
        <time>2020-12-17T12:17:05.550Z</time>
      </trkpt>
      <trkpt lat="45.655479" lon="10.162015">
        <ele>804.342884</ele>
        <time>2020-12-17T12:17:07.595Z</time>
      </trkpt>
      <trkpt lat="45.655563" lon="10.162103">
        <ele>803.043078</ele>
        <time>2020-12-17T12:17:09.735Z</time>
      </trkpt>
      <trkpt lat="45.655772" lon="10.162355">
        <ele>799.630720</ele>
        <time>2020-12-17T12:17:15.395Z</time>
      </trkpt>
      <trkpt lat="45.655771" lon="10.162321">
        <ele>799.333762</ele>
        <time>2020-12-17T12:17:15.860Z</time>
      </trkpt>
      <trkpt lat="45.655769" lon="10.161738">
        <ele>794.246237</ele>
        <time>2020-12-17T12:17:24.250Z</time>
      </trkpt>
      <trkpt lat="45.655605" lon="10.161430">
        <ele>790.033628</ele>
        <time>2020-12-17T12:17:29.688Z</time>
      </trkpt>
      <trkpt lat="45.655004" lon="10.160296">
        <ele>773.114470</ele>
        <time>2020-12-17T12:17:49.506Z</time>
      </trkpt>
      <trkpt lat="45.654983" lon="10.160177">
        <ele>771.655303</ele>
        <time>2020-12-17T12:17:51.223Z</time>
      </trkpt>
      <trkpt lat="45.655073" lon="10.159981">
        <ele>768.867248</ele>
        <time>2020-12-17T12:17:54.506Z</time>
      </trkpt>
      <trkpt lat="45.654821" lon="10.158810">
        <ele>752.894367</ele>
        <time>2020-12-17T12:18:11.513Z</time>
      </trkpt>
      <trkpt lat="45.654821" lon="10.158156">
        <ele>743.797798</ele>
        <time>2020-12-17T12:18:20.415Z</time>
      </trkpt>
      <trkpt lat="45.654772" lon="10.157877">
        <ele>739.796527</ele>
        <time>2020-12-17T12:18:24.343Z</time>
      </trkpt>
      <trkpt lat="45.654664" lon="10.157707">
        <ele>736.601247</ele>
        <time>2020-12-17T12:18:27.479Z</time>
      </trkpt>
      <trkpt lat="45.654656" lon="10.157437">
        <ele>732.842400</ele>
        <time>2020-12-17T12:18:31.201Z</time>
      </trkpt>
      <trkpt lat="45.654536" lon="10.157084">
        <ele>727.382583</ele>
        <time>2020-12-17T12:18:36.625Z</time>
      </trkpt>
      <trkpt lat="45.654500" lon="10.156877">
        <ele>724.580401</ele>
        <time>2020-12-17T12:18:39.532Z</time>
      </trkpt>
      <trkpt lat="45.654532" lon="10.156690">
        <ele>722.088911</ele>
        <time>2020-12-17T12:18:42.135Z</time>
      </trkpt>
      <trkpt lat="45.654509" lon="10.156401">
        <ele>718.324712</ele>
        <time>2020-12-17T12:18:46.148Z</time>
      </trkpt>
      <trkpt lat="45.654318" lon="10.155702">
        <ele>708.612092</ele>
        <time>2020-12-17T12:18:56.434Z</time>
      </trkpt>
      <trkpt lat="45.654190" lon="10.155029">
        <ele>699.585897</ele>
        <time>2020-12-17T12:19:06.190Z</time>
      </trkpt>
      <trkpt lat="45.654263" lon="10.154864">
        <ele>697.058781</ele>
        <time>2020-12-17T12:19:08.837Z</time>
      </trkpt>
      <trkpt lat="45.654227" lon="10.154744">
        <ele>695.368827</ele>
        <time>2020-12-17T12:19:10.633Z</time>
      </trkpt>
      <trkpt lat="45.654140" lon="10.154403">
        <ele>691.428945</ele>
        <time>2020-12-17T12:19:15.912Z</time>
      </trkpt>
      <trkpt lat="45.654059" lon="10.152482">
        <ele>673.236106</ele>
        <time>2020-12-17T12:19:43.662Z</time>
      </trkpt>
      <trkpt lat="45.653990" lon="10.152198">
        <ele>670.393804</ele>
        <time>2020-12-17T12:19:48.088Z</time>
      </trkpt>
      <trkpt lat="45.654138" lon="10.152124">
        <ele>668.321770</ele>
        <time>2020-12-17T12:19:54.829Z</time>
      </trkpt>
      <trkpt lat="45.653922" lon="10.151779">
        <ele>664.182473</ele>
        <time>2020-12-17T12:20:08.770Z</time>
      </trkpt>
      <trkpt lat="45.653713" lon="10.151254">
        <ele>658.782891</ele>
        <time>2020-12-17T12:20:26.989Z</time>
      </trkpt>
      <trkpt lat="45.653625" lon="10.150785">
        <ele>654.442984</ele>
        <time>2020-12-17T12:20:41.639Z</time>
      </trkpt>
      <trkpt lat="45.653613" lon="10.150716">
        <ele>653.807521</ele>
        <time>2020-12-17T12:20:43.790Z</time>
      </trkpt>
      <trkpt lat="45.653600" lon="10.150572">
        <ele>652.509881</ele>
        <time>2020-12-17T12:20:48.190Z</time>
      </trkpt>
      <trkpt lat="45.653638" lon="10.150606">
        <ele>651.936828</ele>
        <time>2020-12-17T12:20:50.121Z</time>
      </trkpt>
      <trkpt lat="45.653644" lon="10.150618">
        <ele>651.804969</ele>
        <time>2020-12-17T12:20:50.566Z</time>
      </trkpt>
      <trkpt lat="45.653653" lon="10.150655">
        <ele>651.454845</ele>
        <time>2020-12-17T12:20:51.746Z</time>
      </trkpt>
      <trkpt lat="45.653715" lon="10.150745">
        <ele>650.325525</ele>
        <time>2020-12-17T12:20:55.553Z</time>
      </trkpt>
      <trkpt lat="45.653901" lon="10.151000">
        <ele>647.031703</ele>
        <time>2020-12-17T12:21:06.650Z</time>
      </trkpt>
      <trkpt lat="45.653911" lon="10.150979">
        <ele>646.804611</ele>
        <time>2020-12-17T12:21:07.414Z</time>
      </trkpt>
      <trkpt lat="45.654216" lon="10.151263">
        <ele>641.998656</ele>
        <time>2020-12-17T12:21:15.030Z</time>
      </trkpt>
      <trkpt lat="45.654534" lon="10.151745">
        <ele>635.849057</ele>
        <time>2020-12-17T12:21:24.467Z</time>
      </trkpt>
      <trkpt lat="45.654648" lon="10.151914">
        <ele>633.669943</ele>
        <time>2020-12-17T12:21:27.854Z</time>
      </trkpt>
      <trkpt lat="45.654728" lon="10.152249">
        <ele>630.385347</ele>
        <time>2020-12-17T12:21:40.460Z</time>
      </trkpt>
      <trkpt lat="45.654971" lon="10.152790">
        <ele>624.418809</ele>
        <time>2020-12-17T12:22:03.845Z</time>
      </trkpt>
      <trkpt lat="45.654970" lon="10.152984">
        <ele>622.618797</ele>
        <time>2020-12-17T12:22:10.671Z</time>
      </trkpt>
      <trkpt lat="45.655039" lon="10.152878">
        <ele>621.327385</ele>
        <time>2020-12-17T12:22:15.760Z</time>
      </trkpt>
      <trkpt lat="45.655062" lon="10.152932">
        <ele>620.771151</ele>
        <time>2020-12-17T12:22:18.134Z</time>
      </trkpt>
      <trkpt lat="45.655020" lon="10.153090">
        <ele>619.284243</ele>
        <time>2020-12-17T12:22:24.659Z</time>
      </trkpt>
      <trkpt lat="45.655084" lon="10.153135">
        <ele>618.386830</ele>
        <time>2020-12-17T12:22:29.623Z</time>
      </trkpt>
      <trkpt lat="45.655122" lon="10.153136">
        <ele>617.908542</ele>
        <time>2020-12-17T12:22:31.484Z</time>
      </trkpt>
      <trkpt lat="45.655149" lon="10.153074">
        <ele>617.265992</ele>
        <time>2020-12-17T12:22:34.132Z</time>
      </trkpt>
      <trkpt lat="45.655289" lon="10.153055">
        <ele>615.496269</ele>
        <time>2020-12-17T12:22:41.612Z</time>
      </trkpt>
      <trkpt lat="45.656074" lon="10.153296">
        <ele>605.392640</ele>
        <time>2020-12-17T12:23:23.845Z</time>
      </trkpt>
      <trkpt lat="45.656142" lon="10.153346">
        <ele>604.430500</ele>
        <time>2020-12-17T12:23:27.491Z</time>
      </trkpt>
      <trkpt lat="45.656216" lon="10.153401">
        <ele>603.381090</ele>
        <time>2020-12-17T12:23:31.673Z</time>
      </trkpt>
      <trkpt lat="45.656522" lon="10.153289">
        <ele>599.389230</ele>
        <time>2020-12-17T12:23:47.888Z</time>
      </trkpt>
      <trkpt lat="45.656871" lon="10.153329">
        <ele>594.676594</ele>
        <time>2020-12-17T12:24:06.668Z</time>
      </trkpt>
      <trkpt lat="45.657489" lon="10.153601">
        <ele>585.973523</ele>
        <time>2020-12-17T12:24:39.500Z</time>
      </trkpt>
      <trkpt lat="45.657911" lon="10.153514">
        <ele>580.234680</ele>
        <time>2020-12-17T12:25:01.329Z</time>
      </trkpt>
      <trkpt lat="45.658319" lon="10.153574">
        <ele>574.466513</ele>
        <time>2020-12-17T12:25:22.687Z</time>
      </trkpt>
      <trkpt lat="45.658393" lon="10.153595">
        <ele>573.105287</ele>
        <time>2020-12-17T12:25:26.336Z</time>
      </trkpt>
      <trkpt lat="45.658411" lon="10.153600">
        <ele>572.774441</ele>
        <time>2020-12-17T12:25:27.268Z</time>
      </trkpt>
      <trkpt lat="45.658585" lon="10.153634">
        <ele>569.605738</ele>
        <time>2020-12-17T12:25:36.871Z</time>
      </trkpt>
      <trkpt lat="45.658729" lon="10.153538">
        <ele>566.739269</ele>
        <time>2020-12-17T12:25:45.017Z</time>
      </trkpt>
      <trkpt lat="45.659165" lon="10.153604">
        <ele>558.828423</ele>
        <time>2020-12-17T12:26:06.389Z</time>
      </trkpt>
      <trkpt lat="45.659583" lon="10.153963">
        <ele>550.031781</ele>
        <time>2020-12-17T12:26:30.364Z</time>
      </trkpt>
      <trkpt lat="45.660039" lon="10.154022">
        <ele>541.238941</ele>
        <time>2020-12-17T12:26:52.195Z</time>
      </trkpt>
      <trkpt lat="45.660159" lon="10.154210">
        <ele>536.625771</ele>
        <time>2020-12-17T12:27:00.693Z</time>
      </trkpt>
      <trkpt lat="45.660252" lon="10.154230">
        <ele>534.187710</ele>
        <time>2020-12-17T12:27:05.399Z</time>
      </trkpt>
      <trkpt lat="45.660348" lon="10.154120">
        <ele>530.999250</ele>
        <time>2020-12-17T12:27:11.273Z</time>
      </trkpt>
      <trkpt lat="45.660439" lon="10.154138">
        <ele>528.617681</ele>
        <time>2020-12-17T12:27:13.086Z</time>
      </trkpt>
      <trkpt lat="45.660773" lon="10.154296">
        <ele>519.497915</ele>
        <time>2020-12-17T12:27:19.912Z</time>
      </trkpt>
      <trkpt lat="45.660848" lon="10.154238">
        <ele>517.287752</ele>
        <time>2020-12-17T12:27:21.569Z</time>
      </trkpt>
      <trkpt lat="45.661234" lon="10.154389">
        <ele>506.913620</ele>
        <time>2020-12-17T12:27:29.368Z</time>
      </trkpt>
      <trkpt lat="45.661563" lon="10.154235">
        <ele>497.939643</ele>
        <time>2020-12-17T12:27:36.155Z</time>
      </trkpt>
      <trkpt lat="45.661826" lon="10.154271">
        <ele>491.116085</ele>
        <time>2020-12-17T12:27:41.366Z</time>
      </trkpt>
      <trkpt lat="45.662313" lon="10.154162">
        <ele>478.399707</ele>
        <time>2020-12-17T12:27:50.984Z</time>
      </trkpt>
      <trkpt lat="45.662728" lon="10.153865">
        <ele>466.429081</ele>
        <time>2020-12-17T12:28:00.016Z</time>
      </trkpt>
      <trkpt lat="45.663330" lon="10.153799">
        <ele>450.853197</ele>
        <time>2020-12-17T12:28:11.701Z</time>
      </trkpt>
      <trkpt lat="45.663479" lon="10.153853">
        <ele>447.815965</ele>
        <time>2020-12-17T12:28:14.738Z</time>
      </trkpt>
      <trkpt lat="45.663578" lon="10.153800">
        <ele>445.913667</ele>
        <time>2020-12-17T12:28:16.772Z</time>
      </trkpt>
      <trkpt lat="45.663658" lon="10.153733">
        <ele>444.245442</ele>
        <time>2020-12-17T12:28:21.322Z</time>
      </trkpt>
      <trkpt lat="45.663893" lon="10.153534">
        <ele>439.331082</ele>
        <time>2020-12-17T12:28:34.799Z</time>
      </trkpt>
      <trkpt lat="45.664012" lon="10.153512">
        <ele>437.171666</ele>
        <time>2020-12-17T12:28:40.907Z</time>
      </trkpt>
      <trkpt lat="45.664015" lon="10.153512">
        <ele>437.117676</ele>
        <time>2020-12-17T12:28:41.163Z</time>
      </trkpt>
      <trkpt lat="45.664083" lon="10.153504">
        <ele>435.889767</ele>
        <time>2020-12-17T12:28:42.580Z</time>
      </trkpt>
      <trkpt lat="45.664309" lon="10.153626">
        <ele>431.542683</ele>
        <time>2020-12-17T12:28:47.504Z</time>
      </trkpt>
      <trkpt lat="45.664583" lon="10.153877">
        <ele>425.687621</ele>
        <time>2020-12-17T12:28:53.921Z</time>
      </trkpt>
      <trkpt lat="45.664888" lon="10.153878">
        <ele>420.198595</ele>
        <time>2020-12-17T12:28:59.881Z</time>
      </trkpt>
      <trkpt lat="45.665186" lon="10.154093">
        <ele>415.180738</ele>
        <time>2020-12-17T12:29:06.582Z</time>
      </trkpt>
      <trkpt lat="45.665651" lon="10.154243">
        <ele>409.099726</ele>
        <time>2020-12-17T12:29:16.505Z</time>
      </trkpt>
      <trkpt lat="45.665678" lon="10.154251">
        <ele>408.747973</ele>
        <time>2020-12-17T12:29:17.044Z</time>
      </trkpt>
      <trkpt lat="45.665772" lon="10.154172">
        <ele>407.357253</ele>
        <time>2020-12-17T12:29:19.324Z</time>
      </trkpt>
      <trkpt lat="45.665789" lon="10.154091">
        <ele>406.603247</ele>
        <time>2020-12-17T12:29:22.293Z</time>
      </trkpt>
      <trkpt lat="45.665858" lon="10.153955">
        <ele>405.104926</ele>
        <time>2020-12-17T12:29:29.686Z</time>
      </trkpt>
      <trkpt lat="45.665863" lon="10.153935">
        <ele>404.915554</ele>
        <time>2020-12-17T12:29:30.399Z</time>
      </trkpt>
      <trkpt lat="45.665880" lon="10.153897">
        <ele>404.513300</ele>
        <time>2020-12-17T12:29:31.095Z</time>
      </trkpt>
      <trkpt lat="45.665887" lon="10.153821">
        <ele>403.829876</ele>
        <time>2020-12-17T12:29:31.698Z</time>
      </trkpt>
      <trkpt lat="45.665941" lon="10.153726">
        <ele>402.738131</ele>
        <time>2020-12-17T12:29:32.711Z</time>
      </trkpt>
      <trkpt lat="45.665958" lon="10.153695">
        <ele>402.386823</ele>
        <time>2020-12-17T12:29:33.009Z</time>
      </trkpt>
      <trkpt lat="45.666285" lon="10.153464">
        <ele>397.734534</ele>
        <time>2020-12-17T12:29:37.330Z</time>
      </trkpt>
      <trkpt lat="45.666576" lon="10.153463">
        <ele>394.145696</ele>
        <time>2020-12-17T12:29:40.794Z</time>
      </trkpt>
      <trkpt lat="45.666727" lon="10.153339">
        <ele>392.367845</ele>
        <time>2020-12-17T12:29:42.853Z</time>
      </trkpt>
      <trkpt lat="45.667004" lon="10.152218">
        <ele>383.882689</ele>
        <time>2020-12-17T12:29:52.631Z</time>
      </trkpt>
      <trkpt lat="45.667083" lon="10.152097">
        <ele>382.700984</ele>
        <time>2020-12-17T12:29:54.054Z</time>
      </trkpt>
      <trkpt lat="45.667226" lon="10.152102">
        <ele>381.240263</ele>
        <time>2020-12-17T12:29:55.781Z</time>
      </trkpt>
      <trkpt lat="45.667354" lon="10.152133">
        <ele>379.914566</ele>
        <time>2020-12-17T12:29:57.453Z</time>
      </trkpt>
      <trkpt lat="45.667463" lon="10.152162">
        <ele>378.782406</ele>
        <time>2020-12-17T12:29:58.774Z</time>
      </trkpt>
      <trkpt lat="45.667520" lon="10.152171">
        <ele>378.196802</ele>
        <time>2020-12-17T12:29:59.450Z</time>
      </trkpt>
      <trkpt lat="45.667475" lon="10.152599">
        <ele>375.377632</ele>
        <time>2020-12-17T12:30:03.190Z</time>
      </trkpt>
      <trkpt lat="45.667474" lon="10.152782">
        <ele>374.373564</ele>
        <time>2020-12-17T12:30:04.733Z</time>
      </trkpt>
      <trkpt lat="45.667473" lon="10.153074">
        <ele>372.771473</ele>
        <time>2020-12-17T12:30:07.247Z</time>
      </trkpt>
      <trkpt lat="45.667581" lon="10.153499">
        <ele>370.290309</ele>
        <time>2020-12-17T12:30:11.128Z</time>
      </trkpt>
      <trkpt lat="45.667641" lon="10.153710">
        <ele>369.040478</ele>
        <time>2020-12-17T12:30:13.018Z</time>
      </trkpt>
      <trkpt lat="45.667929" lon="10.154734">
        <ele>362.984341</ele>
        <time>2020-12-17T12:30:22.581Z</time>
      </trkpt>
      <trkpt lat="45.668534" lon="10.156934">
        <ele>356.087612</ele>
        <time>2020-12-17T12:30:45.751Z</time>
      </trkpt>
      <trkpt lat="45.668591" lon="10.157205">
        <ele>355.311866</ele>
        <time>2020-12-17T12:30:48.719Z</time>
      </trkpt>
      <trkpt lat="45.668921" lon="10.158759">
        <ele>351.971650</ele>
        <time>2020-12-17T12:31:05.684Z</time>
      </trkpt>
      <trkpt lat="45.669064" lon="10.159437">
        <ele>350.539708</ele>
        <time>2020-12-17T12:31:12.818Z</time>
      </trkpt>
      <trkpt lat="45.669133" lon="10.159760">
        <ele>349.854541</ele>
        <time>2020-12-17T12:31:16.212Z</time>
      </trkpt>
      <trkpt lat="45.669151" lon="10.159845">
        <ele>349.663843</ele>
        <time>2020-12-17T12:31:17.106Z</time>
      </trkpt>
      <trkpt lat="45.669227" lon="10.160146">
        <ele>348.976677</ele>
        <time>2020-12-17T12:31:20.362Z</time>
      </trkpt>
      <trkpt lat="45.669296" lon="10.160476">
        <ele>348.237101</ele>
        <time>2020-12-17T12:31:23.830Z</time>
      </trkpt>
      <trkpt lat="45.669493" lon="10.161422">
        <ele>346.117693</ele>
        <time>2020-12-17T12:31:33.978Z</time>
      </trkpt>
      <trkpt lat="45.669675" lon="10.162230">
        <ele>344.286719</ele>
        <time>2020-12-17T12:31:42.513Z</time>
      </trkpt>
      <trkpt lat="45.669836" lon="10.163193">
        <ele>341.916910</ele>
        <time>2020-12-17T12:31:52.517Z</time>
      </trkpt>
      <trkpt lat="45.670267" lon="10.165952">
        <ele>335.087303</ele>
        <time>2020-12-17T12:32:20.498Z</time>
      </trkpt>
      <trkpt lat="45.670380" lon="10.166675">
        <ele>333.277356</ele>
        <time>2020-12-17T12:32:27.758Z</time>
      </trkpt>
      <trkpt lat="45.670390" lon="10.166740">
        <ele>333.114757</ele>
        <time>2020-12-17T12:32:28.373Z</time>
      </trkpt>
      <trkpt lat="45.670526" lon="10.167608">
        <ele>331.231093</ele>
        <time>2020-12-17T12:32:37.457Z</time>
      </trkpt>
      <trkpt lat="45.670551" lon="10.167771">
        <ele>330.944245</ele>
        <time>2020-12-17T12:32:39.111Z</time>
      </trkpt>
      <trkpt lat="45.670617" lon="10.168191">
        <ele>330.204284</ele>
        <time>2020-12-17T12:32:43.585Z</time>
      </trkpt>
      <trkpt lat="45.670904" lon="10.170029">
        <ele>326.953229</ele>
        <time>2020-12-17T12:33:03.961Z</time>
      </trkpt>
      <trkpt lat="45.671159" lon="10.171658">
        <ele>324.008441</ele>
        <time>2020-12-17T12:33:21.630Z</time>
      </trkpt>
      <trkpt lat="45.671370" lon="10.173089">
        <ele>321.008682</ele>
        <time>2020-12-17T12:33:36.411Z</time>
      </trkpt>
      <trkpt lat="45.671355" lon="10.173504">
        <ele>320.073798</ele>
        <time>2020-12-17T12:33:40.662Z</time>
      </trkpt>
      <trkpt lat="45.670983" lon="10.174844">
        <ele>316.799585</ele>
        <time>2020-12-17T12:33:55.035Z</time>
      </trkpt>
      <trkpt lat="45.671016" lon="10.176045">
        <ele>313.848677</ele>
        <time>2020-12-17T12:34:07.015Z</time>
      </trkpt>
      <trkpt lat="45.671021" lon="10.176247">
        <ele>313.352427</ele>
        <time>2020-12-17T12:34:08.957Z</time>
      </trkpt>
      <trkpt lat="45.671025" lon="10.176401">
        <ele>312.974073</ele>
        <time>2020-12-17T12:34:10.404Z</time>
      </trkpt>
      <trkpt lat="45.670993" lon="10.176762">
        <ele>312.080663</ele>
        <time>2020-12-17T12:34:14.097Z</time>
      </trkpt>
      <trkpt lat="45.670730" lon="10.177595">
        <ele>310.055579</ele>
        <time>2020-12-17T12:34:23.210Z</time>
      </trkpt>
      <trkpt lat="45.670699" lon="10.177741">
        <ele>309.762488</ele>
        <time>2020-12-17T12:34:24.676Z</time>
      </trkpt>
      <trkpt lat="45.670698" lon="10.177748">
        <ele>309.748764</ele>
        <time>2020-12-17T12:34:24.732Z</time>
      </trkpt>
      <trkpt lat="45.670639" lon="10.178021">
        <ele>309.199890</ele>
        <time>2020-12-17T12:34:27.737Z</time>
      </trkpt>
      <trkpt lat="45.670400" lon="10.180906">
        <ele>303.806904</ele>
        <time>2020-12-17T12:34:58.393Z</time>
      </trkpt>
      <trkpt lat="45.670392" lon="10.181007">
        <ele>303.627700</ele>
        <time>2020-12-17T12:34:59.401Z</time>
      </trkpt>
      <trkpt lat="45.670382" lon="10.181123">
        <ele>303.421641</ele>
        <time>2020-12-17T12:35:00.710Z</time>
      </trkpt>
      <trkpt lat="45.670340" lon="10.181398">
        <ele>302.925370</ele>
        <time>2020-12-17T12:35:03.774Z</time>
      </trkpt>
      <trkpt lat="45.670197" lon="10.181967">
        <ele>301.859313</ele>
        <time>2020-12-17T12:35:10.108Z</time>
      </trkpt>
      <trkpt lat="45.669961" lon="10.182910">
        <ele>300.099156</ele>
        <time>2020-12-17T12:35:20.325Z</time>
      </trkpt>
      <trkpt lat="45.669898" lon="10.183878">
        <ele>298.392969</ele>
        <time>2020-12-17T12:35:30.519Z</time>
      </trkpt>
      <trkpt lat="45.669909" lon="10.184404">
        <ele>297.469429</ele>
        <time>2020-12-17T12:35:36.013Z</time>
      </trkpt>
      <trkpt lat="45.669911" lon="10.184477">
        <ele>297.341216</ele>
        <time>2020-12-17T12:35:36.772Z</time>
      </trkpt>
      <trkpt lat="45.669941" lon="10.184657">
        <ele>297.016456</ele>
        <time>2020-12-17T12:35:38.731Z</time>
      </trkpt>
      <trkpt lat="45.669900" lon="10.184656">
        <ele>296.913471</ele>
        <time>2020-12-17T12:35:39.363Z</time>
      </trkpt>
      <trkpt lat="45.669852" lon="10.184655">
        <ele>296.806747</ele>
        <time>2020-12-17T12:35:40.112Z</time>
      </trkpt>
      <trkpt lat="45.669787" lon="10.184654">
        <ele>296.687685</ele>
        <time>2020-12-17T12:35:41.117Z</time>
      </trkpt>
      <trkpt lat="45.669749" lon="10.184633">
        <ele>296.613073</ele>
        <time>2020-12-17T12:35:41.750Z</time>
      </trkpt>
      <trkpt lat="45.669194" lon="10.184377">
        <ele>295.545018</ele>
        <time>2020-12-17T12:35:50.858Z</time>
      </trkpt>
      <trkpt lat="45.668783" lon="10.184011">
        <ele>294.658361</ele>
        <time>2020-12-17T12:35:58.438Z</time>
      </trkpt>
      <trkpt lat="45.668666" lon="10.184071">
        <ele>294.430716</ele>
        <time>2020-12-17T12:36:00.439Z</time>
      </trkpt>
      <trkpt lat="45.668223" lon="10.184802">
        <ele>293.195674</ele>
        <time>2020-12-17T12:36:11.425Z</time>
      </trkpt>
      <trkpt lat="45.668546" lon="10.185218">
        <ele>292.407383</ele>
        <time>2020-12-17T12:36:18.222Z</time>
      </trkpt>
      <trkpt lat="45.668581" lon="10.185370">
        <ele>292.204510</ele>
        <time>2020-12-17T12:36:19.969Z</time>
      </trkpt>
      <trkpt lat="45.668552" lon="10.185566">
        <ele>291.950542</ele>
        <time>2020-12-17T12:36:22.188Z</time>
      </trkpt>
      <trkpt lat="45.668200" lon="10.186116">
        <ele>291.005118</ele>
        <time>2020-12-17T12:36:30.184Z</time>
      </trkpt>
      <trkpt lat="45.669164" lon="10.187462">
        <ele>289.735581</ele>
        <time>2020-12-17T12:36:51.601Z</time>
      </trkpt>
      <trkpt lat="45.668951" lon="10.187597">
        <ele>289.600532</ele>
        <time>2020-12-17T12:36:55.501Z</time>
      </trkpt>
      <trkpt lat="45.668637" lon="10.187798">
        <ele>289.401120</ele>
        <time>2020-12-17T12:37:01.970Z</time>
      </trkpt>
      <trkpt lat="45.668589" lon="10.187846">
        <ele>289.367172</ele>
        <time>2020-12-17T12:37:03.161Z</time>
      </trkpt>
      <trkpt lat="45.668228" lon="10.188210">
        <ele>290.746019</ele>
        <time>2020-12-17T12:37:15.234Z</time>
      </trkpt>
      <trkpt lat="45.668093" lon="10.188447">
        <ele>292.145209</ele>
        <time>2020-12-17T12:37:23.195Z</time>
      </trkpt>
      <trkpt lat="45.667986" lon="10.188530">
        <ele>292.942210</ele>
        <time>2020-12-17T12:37:27.577Z</time>
      </trkpt>
      <trkpt lat="45.667664" lon="10.188721">
        <ele>295.224768</ele>
        <time>2020-12-17T12:37:43.563Z</time>
      </trkpt>
      <trkpt lat="45.666249" lon="10.188894">
        <ele>303.757619</ele>
        <time>2020-12-17T12:39:27.630Z</time>
      </trkpt>
      <trkpt lat="45.665788" lon="10.189120">
        <ele>306.249916</ele>
        <time>2020-12-17T12:39:56.734Z</time>
      </trkpt>
      <trkpt lat="45.665652" lon="10.189251">
        <ele>307.088393</ele>
        <time>2020-12-17T12:39:59.379Z</time>
      </trkpt>
      <trkpt lat="45.665629" lon="10.189286">
        <ele>307.260110</ele>
        <time>2020-12-17T12:40:04.506Z</time>
      </trkpt>
      <trkpt lat="45.665542" lon="10.189421">
        <ele>307.916472</ele>
        <time>2020-12-17T12:40:11.962Z</time>
      </trkpt>
      <trkpt lat="45.665455" lon="10.189613">
        <ele>308.734352</ele>
        <time>2020-12-17T12:40:13.893Z</time>
      </trkpt>
      <trkpt lat="45.665357" lon="10.190381">
        <ele>308.138814</ele>
        <time>2020-12-17T12:40:24.032Z</time>
      </trkpt>
      <trkpt lat="45.665316" lon="10.190708">
        <ele>306.241356</ele>
        <time>2020-12-17T12:40:27.073Z</time>
      </trkpt>
      <trkpt lat="45.665117" lon="10.191504">
        <ele>301.412907</ele>
        <time>2020-12-17T12:40:34.415Z</time>
      </trkpt>
      <trkpt lat="45.665076" lon="10.191758">
        <ele>299.924003</ele>
        <time>2020-12-17T12:40:36.484Z</time>
      </trkpt>
      <trkpt lat="45.665050" lon="10.191875">
        <ele>299.222792</ele>
        <time>2020-12-17T12:40:37.455Z</time>
      </trkpt>
      <trkpt lat="45.665032" lon="10.191953">
        <ele>298.753639</ele>
        <time>2020-12-17T12:40:38.136Z</time>
      </trkpt>
      <trkpt lat="45.665049" lon="10.192151">
        <ele>297.614267</ele>
        <time>2020-12-17T12:40:39.753Z</time>
      </trkpt>
      <trkpt lat="45.665045" lon="10.192258">
        <ele>297.002268</ele>
        <time>2020-12-17T12:40:40.659Z</time>
      </trkpt>
      <trkpt lat="45.665033" lon="10.192376">
        <ele>296.321218</ele>
        <time>2020-12-17T12:40:41.596Z</time>
      </trkpt>
      <trkpt lat="45.665045" lon="10.192258">
        <ele>295.640167</ele>
        <time>2020-12-17T12:40:42.623Z</time>
      </trkpt>
      <trkpt lat="45.665049" lon="10.192151">
        <ele>295.113563</ele>
        <time>2020-12-17T12:40:43.486Z</time>
      </trkpt>
      <trkpt lat="45.665032" lon="10.191953">
        <ele>294.171303</ele>
        <time>2020-12-17T12:40:45.176Z</time>
      </trkpt>
      <trkpt lat="45.665004" lon="10.192080">
        <ele>293.542291</ele>
        <time>2020-12-17T12:40:47.053Z</time>
      </trkpt>
      <trkpt lat="45.664762" lon="10.192464">
        <ele>291.099943</ele>
        <time>2020-12-17T12:40:54.857Z</time>
      </trkpt>
      <trkpt lat="45.664642" lon="10.192680">
        <ele>289.796591</ele>
        <time>2020-12-17T12:40:59.259Z</time>
      </trkpt>
      <trkpt lat="45.664625" lon="10.192623">
        <ele>289.503864</ele>
        <time>2020-12-17T12:40:59.826Z</time>
      </trkpt>
      <trkpt lat="45.664314" lon="10.192808">
        <ele>287.227488</ele>
        <time>2020-12-17T12:41:04.272Z</time>
      </trkpt>
      <trkpt lat="45.664316" lon="10.192904">
        <ele>286.773836</ele>
        <time>2020-12-17T12:41:05.304Z</time>
      </trkpt>
      <trkpt lat="45.664334" lon="10.192903">
        <ele>286.652087</ele>
        <time>2020-12-17T12:41:05.509Z</time>
      </trkpt>
      <trkpt lat="45.664315" lon="10.192955">
        <ele>286.374924</ele>
        <time>2020-12-17T12:41:05.999Z</time>
      </trkpt>
      <trkpt lat="45.664043" lon="10.192967">
        <ele>284.535666</ele>
        <time>2020-12-17T12:41:12.369Z</time>
      </trkpt>
      <trkpt lat="45.663178" lon="10.192696">
        <ele>282.480274</ele>
        <time>2020-12-17T12:41:25.647Z</time>
      </trkpt>
      <trkpt lat="45.662931" lon="10.192691">
        <ele>282.173395</ele>
        <time>2020-12-17T12:41:30.430Z</time>
      </trkpt>
      <trkpt lat="45.662915" lon="10.192690">
        <ele>282.153500</ele>
        <time>2020-12-17T12:41:30.624Z</time>
      </trkpt>
      <trkpt lat="45.662354" lon="10.192684">
        <ele>281.456551</ele>
        <time>2020-12-17T12:41:41.598Z</time>
      </trkpt>
      <trkpt lat="45.661644" lon="10.192837">
        <ele>280.524960</ele>
        <time>2020-12-17T12:41:53.870Z</time>
      </trkpt>
      <trkpt lat="45.660963" lon="10.192594">
        <ele>279.592039</ele>
        <time>2020-12-17T12:42:04.719Z</time>
      </trkpt>
      <trkpt lat="45.660936" lon="10.192609">
        <ele>279.553540</ele>
        <time>2020-12-17T12:42:05.293Z</time>
      </trkpt>
      <trkpt lat="45.660780" lon="10.192700">
        <ele>279.329611</ele>
        <time>2020-12-17T12:42:07.909Z</time>
      </trkpt>
      <trkpt lat="45.660499" lon="10.193050">
        <ele>278.834402</ele>
        <time>2020-12-17T12:42:14.067Z</time>
      </trkpt>
      <trkpt lat="45.660395" lon="10.193121">
        <ele>278.685492</ele>
        <time>2020-12-17T12:42:16.077Z</time>
      </trkpt>
      <trkpt lat="45.660183" lon="10.193156">
        <ele>278.422406</ele>
        <time>2020-12-17T12:42:20.115Z</time>
      </trkpt>
      <trkpt lat="45.660181" lon="10.193219">
        <ele>278.368069</ele>
        <time>2020-12-17T12:42:20.726Z</time>
      </trkpt>
      <trkpt lat="45.660187" lon="10.193336">
        <ele>278.266989</ele>
        <time>2020-12-17T12:42:22.178Z</time>
      </trkpt>
      <trkpt lat="45.660202" lon="10.193335">
        <ele>278.248477</ele>
        <time>2020-12-17T12:42:22.834Z</time>
      </trkpt>
      <trkpt lat="45.660217" lon="10.193423">
        <ele>278.170433</ele>
        <time>2020-12-17T12:42:25.549Z</time>
      </trkpt>
      <trkpt lat="45.660229" lon="10.193563">
        <ele>278.048903</ele>
        <time>2020-12-17T12:42:29.777Z</time>
      </trkpt>
      <trkpt lat="45.660098" lon="10.193630">
        <ele>277.877400</ele>
        <time>2020-12-17T12:42:35.727Z</time>
      </trkpt>
      <trkpt lat="45.659877" lon="10.193719">
        <ele>277.594367</ele>
        <time>2020-12-17T12:42:45.544Z</time>
      </trkpt>
      <trkpt lat="45.659769" lon="10.193737">
        <ele>277.460325</ele>
        <time>2020-12-17T12:42:50.194Z</time>
      </trkpt>
      <trkpt lat="45.659678" lon="10.193733">
        <ele>277.348088</ele>
        <time>2020-12-17T12:42:54.086Z</time>
      </trkpt>
      <trkpt lat="45.659390" lon="10.193738">
        <ele>276.993018</ele>
        <time>2020-12-17T12:43:06.399Z</time>
      </trkpt>
      <trkpt lat="45.659078" lon="10.193853">
        <ele>276.595829</ele>
        <time>2020-12-17T12:43:20.176Z</time>
      </trkpt>
      <trkpt lat="45.658726" lon="10.193983">
        <ele>276.515402</ele>
        <time>2020-12-17T12:43:35.720Z</time>
      </trkpt>
      <trkpt lat="45.658656" lon="10.194043">
        <ele>276.513475</ele>
        <time>2020-12-17T12:43:39.211Z</time>
      </trkpt>
      <trkpt lat="45.658486" lon="10.194079">
        <ele>276.509416</ele>
        <time>2020-12-17T12:43:42.987Z</time>
      </trkpt>
      <trkpt lat="45.658237" lon="10.194153">
        <ele>276.503410</ele>
        <time>2020-12-17T12:43:47.541Z</time>
      </trkpt>
      <trkpt lat="45.657945" lon="10.194432">
        <ele>276.495117</ele>
        <time>2020-12-17T12:43:54.712Z</time>
      </trkpt>
      <trkpt lat="45.656678" lon="10.194861">
        <ele>275.982349</ele>
        <time>2020-12-17T12:44:23.831Z</time>
      </trkpt>
      <trkpt lat="45.656087" lon="10.194999">
        <ele>275.535054</ele>
        <time>2020-12-17T12:44:34.534Z</time>
      </trkpt>
      <trkpt lat="45.655913" lon="10.195119">
        <ele>275.390770</ele>
        <time>2020-12-17T12:44:37.384Z</time>
      </trkpt>
      <trkpt lat="45.655463" lon="10.195559">
        <ele>274.380166</ele>
        <time>2020-12-17T12:44:45.735Z</time>
      </trkpt>
      <trkpt lat="45.654894" lon="10.196191">
        <ele>271.719129</ele>
        <time>2020-12-17T12:44:55.961Z</time>
      </trkpt>
      <trkpt lat="45.654587" lon="10.196533">
        <ele>270.281782</ele>
        <time>2020-12-17T12:45:01.095Z</time>
      </trkpt>
      <trkpt lat="45.654375" lon="10.196739">
        <ele>269.335078</ele>
        <time>2020-12-17T12:45:04.566Z</time>
      </trkpt>
      <trkpt lat="45.653793" lon="10.197064">
        <ele>267.560441</ele>
        <time>2020-12-17T12:45:13.216Z</time>
      </trkpt>
      <trkpt lat="45.651917" lon="10.197262">
        <ele>263.806554</ele>
        <time>2020-12-17T12:45:42.889Z</time>
      </trkpt>
      <trkpt lat="45.649831" lon="10.196546">
        <ele>262.997010</ele>
        <time>2020-12-17T12:46:20.542Z</time>
      </trkpt>
      <trkpt lat="45.649752" lon="10.196514">
        <ele>263.042477</ele>
        <time>2020-12-17T12:46:22.147Z</time>
      </trkpt>
      <trkpt lat="45.649093" lon="10.196246">
        <ele>263.421867</ele>
        <time>2020-12-17T12:46:39.614Z</time>
      </trkpt>
      <trkpt lat="45.649066" lon="10.196235">
        <ele>263.437413</ele>
        <time>2020-12-17T12:46:40.304Z</time>
      </trkpt>
      <trkpt lat="45.649007" lon="10.196186">
        <ele>263.475192</ele>
        <time>2020-12-17T12:46:42.192Z</time>
      </trkpt>
      <trkpt lat="45.648987" lon="10.196169">
        <ele>263.488075</ele>
        <time>2020-12-17T12:46:42.836Z</time>
      </trkpt>
      <trkpt lat="45.648611" lon="10.195857">
        <ele>264.101745</ele>
        <time>2020-12-17T12:46:57.559Z</time>
      </trkpt>
      <trkpt lat="45.648253" lon="10.195677">
        <ele>264.718058</ele>
        <time>2020-12-17T12:47:10.064Z</time>
      </trkpt>
      <trkpt lat="45.647784" lon="10.195771">
        <ele>265.487220</ele>
        <time>2020-12-17T12:47:24.014Z</time>
      </trkpt>
      <trkpt lat="45.647474" lon="10.195565">
        <ele>266.042377</ele>
        <time>2020-12-17T12:47:32.781Z</time>
      </trkpt>
      <trkpt lat="45.647355" lon="10.195360">
        <ele>266.344915</ele>
        <time>2020-12-17T12:47:37.718Z</time>
      </trkpt>
      <trkpt lat="45.647332" lon="10.195321">
        <ele>266.402847</ele>
        <time>2020-12-17T12:47:38.338Z</time>
      </trkpt>
      <trkpt lat="45.647285" lon="10.195240">
        <ele>266.367003</ele>
        <time>2020-12-17T12:47:39.561Z</time>
      </trkpt>
      <trkpt lat="45.647243" lon="10.195194">
        <ele>266.248470</ele>
        <time>2020-12-17T12:47:40.314Z</time>
      </trkpt>
      <trkpt lat="45.647061" lon="10.195047">
        <ele>265.780120</ele>
        <time>2020-12-17T12:47:44.460Z</time>
      </trkpt>
      <trkpt lat="45.646851" lon="10.194980">
        <ele>265.297985</ele>
        <time>2020-12-17T12:47:47.817Z</time>
      </trkpt>
      <trkpt lat="45.646661" lon="10.194998">
        <ele>264.871296</ele>
        <time>2020-12-17T12:47:51.044Z</time>
      </trkpt>
      <trkpt lat="45.646180" lon="10.195066">
        <ele>263.788209</ele>
        <time>2020-12-17T12:47:58.064Z</time>
      </trkpt>
      <trkpt lat="45.645801" lon="10.195151">
        <ele>262.928562</ele>
        <time>2020-12-17T12:48:03.537Z</time>
      </trkpt>
      <trkpt lat="45.645422" lon="10.195278">
        <ele>262.000620</ele>
        <time>2020-12-17T12:48:08.883Z</time>
      </trkpt>
      <trkpt lat="45.645247" lon="10.195266">
        <ele>261.549001</ele>
        <time>2020-12-17T12:48:11.298Z</time>
      </trkpt>
      <trkpt lat="45.644792" lon="10.195178">
        <ele>260.365467</ele>
        <time>2020-12-17T12:48:17.726Z</time>
      </trkpt>
      <trkpt lat="45.644642" lon="10.195152">
        <ele>259.975980</ele>
        <time>2020-12-17T12:48:19.972Z</time>
      </trkpt>
      <trkpt lat="45.644096" lon="10.195098">
        <ele>258.565186</ele>
        <time>2020-12-17T12:48:28.623Z</time>
      </trkpt>
      <trkpt lat="45.643844" lon="10.195071">
        <ele>257.913781</ele>
        <time>2020-12-17T12:48:32.896Z</time>
      </trkpt>
      <trkpt lat="45.643650" lon="10.195048">
        <ele>257.641041</ele>
        <time>2020-12-17T12:48:36.053Z</time>
      </trkpt>
      <trkpt lat="45.643698" lon="10.194414">
        <ele>257.187724</ele>
        <time>2020-12-17T12:48:43.667Z</time>
      </trkpt>
      <trkpt lat="45.643774" lon="10.193870">
        <ele>256.793374</ele>
        <time>2020-12-17T12:48:50.553Z</time>
      </trkpt>
      <trkpt lat="45.643254" lon="10.193702">
        <ele>256.251326</ele>
        <time>2020-12-17T12:48:59.808Z</time>
      </trkpt>
      <trkpt lat="45.643071" lon="10.193644">
        <ele>256.060741</ele>
        <time>2020-12-17T12:49:02.972Z</time>
      </trkpt>
      <trkpt lat="45.642031" lon="10.193355">
        <ele>254.184139</ele>
        <time>2020-12-17T12:49:19.654Z</time>
      </trkpt>
      <trkpt lat="45.641401" lon="10.193176">
        <ele>252.997184</ele>
        <time>2020-12-17T12:49:29.422Z</time>
      </trkpt>
      <trkpt lat="45.640648" lon="10.192913">
        <ele>251.765494</ele>
        <time>2020-12-17T12:49:41.389Z</time>
      </trkpt>
      <trkpt lat="45.638861" lon="10.192639">
        <ele>249.935625</ele>
        <time>2020-12-17T12:50:11.095Z</time>
      </trkpt>
      <trkpt lat="45.638515" lon="10.192587">
        <ele>249.935625</ele>
        <time>2020-12-17T12:50:17.390Z</time>
      </trkpt>
      <trkpt lat="45.638498" lon="10.192586">
        <ele>249.935625</ele>
        <time>2020-12-17T12:50:17.713Z</time>
      </trkpt>
    </trkseg>
  </trk>
</gpx>